YYYY MM/DD hh:mm	Temp	Humid	W_dir	W_spd	Barom	T_int	Light	Power	Temp2	P2	Snow	T_mid	T_base	Precip
Year Date  Time 	(F)	(%)	(Deg)	(MPH)	("Hg)	(F)	/1000	(V)	(F)	-	(")	(F)	(F)	(")
2017 12/09 00:00	49.0	18.2	114.7	7.2	30.50	52.6	0.0	13.02	-40.0	0	16.7	34.4	32.1	0	1725	0	0	0	68.5	29.0	0.0
2017 12/09 00:15	49.4	17.7	132.4	6.9	30.50	52.5	0.0	13.00	-40.0	0	16.7	34.4	32.1	0	1725	0	0	0	68.5	29.0	0.0
2017 12/09 00:30	50.0	17.2	122.6	4.8	30.50	52.4	0.0	13.00	-40.0	0	16.7	34.4	32.1	0	1725	0	0	0	68.5	29.0	0.0
2017 12/09 00:45	50.4	17.1	144.9	4.1	30.50	52.3	0.0	13.02	-40.0	0	16.7	34.4	32.1	0	1725	0	0	0	68.5	29.0	0.0
2017 12/09 01:00	49.8	17.6	148.9	4.9	30.50	52.2	0.0	13.01	-40.0	0	16.7	34.4	32.1	0	1725	0	0	0	68.5	29.0	0.0
2017 12/09 01:15	50.9	16.1	200.4	11.1	30.50	52.2	0.0	12.99	-40.0	0	16.7	34.4	32.1	0	1725	0	0	0	68.5	29.0	0.0
2017 12/09 01:30	50.6	16.3	189.9	11.4	30.49	52.0	0.0	13.02	-40.1	0	16.7	34.4	32.1	0	1725	0	0	0	68.5	29.0	0.0
2017 12/09 01:45	50.1	16.8	164.9	14.4	30.49	51.9	0.0	13.02	-40.0	0	16.7	34.4	32.1	0	1725	0	0	0	68.5	29.0	0.0
2017 12/09 02:00	50.3	16.4	153.3	12.6	30.48	51.8	0.0	13.00	-40.0	0	16.7	34.4	32.1	0	1725	0	0	0	68.5	29.0	0.0
2017 12/09 02:15	50.6	15.9	158.0	10.7	30.48	51.6	0.0	13.02	-40.0	0	16.7	34.4	32.1	0	1725	0	0	0	68.5	29.0	0.0
2017 12/09 02:30	49.0	18.0	175.4	4.7	30.48	51.6	0.0	13.00	-40.0	0	16.7	34.4	32.1	0	1725	0	0	0	68.5	29.0	0.0
2017 12/09 02:45	49.9	16.8	166.7	13.2	30.48	51.4	0.0	13.00	-40.0	0	16.7	34.4	32.1	0	1725	0	0	0	68.5	29.0	0.0
2017 12/09 03:00	49.4	17.4	150.8	12.2	30.47	51.4	0.0	13.00	-40.0	0	16.7	34.4	32.1	0	1725	0	0	0	68.5	29.0	0.0
2017 12/09 03:15	49.8	17.0	187.7	12.5	30.47	51.1	0.0	13.01	-40.0	0	16.7	34.4	32.1	0	1725	0	0	0	68.5	29.0	0.0
2017 12/09 03:30	49.8	17.2	178.5	12.4	30.47	51.0	0.0	13.00	-40.0	0	16.7	34.4	32.1	0	1725	0	0	0	68.5	29.0	0.0
2017 12/09 03:45	49.5	17.6	193.5	11.7	30.47	50.9	0.0	13.02	-40.0	0	16.7	34.4	32.1	0	1725	0	0	0	68.5	29.0	0.0
2017 12/09 04:00	49.2	18.3	190.1	11.3	30.47	50.7	0.0	13.00	-40.0	0	16.7	34.4	32.1	0	1725	0	0	0	68.5	29.0	0.0
2017 12/09 04:15	48.8	18.5	192.4	10.8	30.47	50.5	0.0	13.00	-40.0	0	16.7	34.4	32.1	0	1725	0	0	0	68.5	29.0	0.0
2017 12/09 04:30	49.4	17.8	207.9	12.6	30.46	50.5	0.0	13.01	-40.0	0	16.7	34.4	32.1	0	1725	0	0	0	68.5	29.0	0.0
2017 12/09 04:45	49.3	17.6	211.5	12.9	30.46	50.3	0.0	13.01	-40.0	0	16.7	34.4	32.1	0	1725	0	0	0	68.5	29.0	0.0
2017 12/09 05:00	49.4	18.0	209.9	10.2	30.46	50.1	0.0	13.02	-40.0	0	16.7	34.4	32.1	0	1725	0	0	0	68.5	29.0	0.0
2017 12/09 05:15	49.8	17.8	212.9	10.7	30.46	50.1	0.0	13.02	-40.0	0	16.7	34.4	32.1	0	1725	0	0	0	68.5	29.0	0.0
2017 12/09 05:30	49.8	17.9	204.3	7.9	30.45	49.9	0.0	13.02	-40.0	0	16.7	34.4	32.1	0	1725	0	0	0	68.5	29.0	0.0
2017 12/09 05:45	49.8	18.2	220.9	5.8	30.45	49.9	0.0	13.02	-40.0	0	16.7	34.4	32.1	0	1725	0	0	0	68.5	29.0	0.0
2017 12/09 06:00	49.4	18.7	216.9	2.7	30.45	49.7	0.0	13.00	-40.0	0	16.7	34.4	32.1	0	1725	0	0	0	68.5	29.0	0.0
2017 12/09 06:15	49.5	18.4	207.4	2.4	30.45	49.7	0.0	13.00	-40.0	0	16.7	34.4	32.1	0	1725	0	0	0	68.5	29.0	0.0
2017 12/09 06:30	49.6	18.7	90.3	2.4	30.44	49.7	0.0	13.00	-39.9	0	16.7	34.4	32.1	0	1725	0	0	0	68.5	29.0	0.0
2017 12/09 06:45	48.7	19.2	84.8	6.2	30.45	49.6	0.3	13.00	-40.0	0	16.7	34.4	32.1	0	1725	0	0	0	68.5	29.0	0.0
2017 12/09 07:00	49.2	19.1	73.6	9.8	30.44	49.5	6.1	12.99	-39.9	0	16.7	34.4	32.1	0	1725	0	0	0	68.5	29.0	0.0
2017 12/09 07:15	46.0	21.0	61.2	9.3	30.44	49.5	80.1	13.00	-40.0	0	16.7	34.4	32.1	0	1725	0	0	0	68.5	29.0	0.0
2017 12/09 07:30	45.4	21.9	64.0	9.9	30.44	49.5	322.7	12.99	-40.0	0	16.7	34.4	32.1	0	1725	0	0	0	68.5	29.0	0.0
2017 12/09 07:45	45.5	21.6	78.5	12.9	30.44	49.5	600.5	12.99	-39.9	0	16.7	34.4	32.1	0	1725	0	0	0	68.5	29.0	0.0
2017 12/09 08:00	45.1	22.0	83.9	11.7	30.44	49.4	678.2	13.02	-40.0	0	16.7	34.4	32.1	0	1725	0	0	0	68.5	29.0	0.0
2017 12/09 08:15	45.6	21.2	85.6	11.7	30.44	49.5	749.0	13.01	-40.0	0	16.7	34.4	32.1	0	1725	0	0	0	68.5	29.0	0.0
2017 12/09 08:30	46.0	21.9	103.1	12.4	30.45	49.5	795.0	13.00	-39.9	0	16.7	34.4	32.1	0	1725	0	0	0	68.5	29.0	0.0
2017 12/09 08:45	43.1	25.2	73.5	12.9	30.44	49.5	799.0	13.02	-40.0	0	16.7	34.4	32.1	0	1725	0	0	0	68.5	29.0	0.0
2017 12/09 09:00	47.0	20.6	103.1	13.8	30.45	49.5	819.0	12.99	-40.0	0	16.7	34.4	32.1	0	1725	0	0	0	68.5	29.0	0.0
2017 12/09 09:15	44.3	23.7	81.6	12.8	30.45	49.5	829.0	12.99	-40.0	0	16.7	34.4	32.1	0	1725	0	0	0	68.5	29.0	0.0
2017 12/09 09:30	43.5	23.5	68.8	14.9	30.45	49.5	850.0	12.98	-40.0	0	16.7	34.4	32.1	0	1725	0	0	0	68.5	29.0	0.0
2017 12/09 09:45	44.6	22.1	68.8	13.9	30.46	49.4	864.0	13.00	-40.0	0	16.6	34.4	33.7	0	1725	0	0	0	68.4	29.5	0.0
2017 12/09 10:00	45.6	21.6	67.4	15.2	30.46	49.5	860.0	13.00	-40.0	0	16.4	34.4	35.2	0	1725	0	0	0	68.3	30.3	0.0
2017 12/09 10:15	46.2	19.9	63.9	15.1	30.46	49.5	846.0	13.01	-40.0	0	16.5	33.5	35.7	0	1725	0	0	0	68.5	31.1	0.0
2017 12/09 10:30	47.8	18.0	63.2	14.1	30.46	49.4	857.0	12.99	-40.0	0	16.5	33.5	35.9	0	1725	0	0	0	68.0	31.4	0.0
2017 12/09 10:45	47.7	19.3	71.2	13.8	30.46	49.5	867.0	13.00	-39.9	0	16.6	35.3	36.9	0	1725	0	0	0	67.5	32.0	0.0
2017 12/09 11:00	48.2	17.9	63.0	12.9	30.46	49.5	873.0	13.01	-40.0	0	16.7	36.2	38.2	0	1725	0	0	0	67.3	32.7	0.0
2017 12/09 11:15	48.1	17.8	72.3	12.9	30.46	49.5	881.0	12.99	-40.0	0	16.8	38.0	39.8	0	1725	0	0	0	67.0	33.7	0.0
2017 12/09 11:30	47.6	18.9	66.1	11.1	30.46	49.6	883.0	12.99	-40.0	0	16.8	39.8	41.4	0	1725	0	0	0	66.9	34.8	0.0
2017 12/09 11:45	48.1	18.0	77.9	11.4	30.45	49.6	875.0	13.00	-39.9	0	16.6	41.6	42.3	0	1725	0	0	0	67.8	36.0	0.0
2017 12/09 12:00	45.3	21.4	60.5	12.6	30.45	49.7	877.0	12.99	-40.0	0	16.7	42.5	43.1	0	1726	0	0	0	70.3	36.9	0.0
2017 12/09 12:15	46.4	21.0	67.4	13.1	30.45	49.9	877.0	13.01	-40.0	0	16.2	45.2	41.3	0	1726	0	0	0	71.7	37.7	0.0
2017 12/09 12:30	46.1	22.1	69.5	10.9	30.44	49.9	878.0	13.00	-40.0	0	14.8	47.9	40.0	0	1727	0	0	0	73.1	38.2	0.0
2017 12/09 12:45	47.2	18.9	64.5	11.8	30.44	50.1	875.0	13.01	-40.0	0	15.3	45.2	39.3	0	1727	0	0	0	74.4	38.7	0.0
2017 12/09 13:00	48.1	18.2	63.7	11.1	30.44	50.1	875.0	12.99	-40.0	0	15.0	43.4	38.2	0	1728	0	0	0	75.8	39.0	0.0
2017 12/09 13:15	47.3	18.7	79.8	9.2	30.43	50.3	875.0	13.01	-40.0	0	15.6	38.9	37.8	0	1728	0	0	0	77.1	39.3	0.0
2017 12/09 13:30	47.7	18.6	65.9	11.1	30.43	50.4	878.0	13.02	-40.0	0	15.7	37.1	37.5	0	1728	0	0	0	77.7	39.4	0.0
2017 12/09 13:45	47.1	17.6	67.4	11.7	30.43	50.5	869.0	12.99	-40.0	0	16.0	33.5	36.2	0	1728	0	0	0	78.1	39.7	0.0
2017 12/09 14:00	47.2	17.3	71.8	13.9	30.43	50.7	868.0	12.98	-40.0	0	16.3	32.6	35.7	0	1728	0	0	0	78.4	39.7	0.0
2017 12/09 14:15	46.6	18.6	65.9	11.7	30.43	50.8	864.0	12.98	-40.0	0	15.8	36.2	35.8	0	1728	0	0	0	78.5	39.6	0.0
2017 12/09 14:30	45.3	21.9	66.3	10.5	30.43	50.9	869.0	12.99	-40.0	0	15.7	36.2	35.3	0	1728	0	0	0	78.0	39.7	0.0
2017 12/09 14:45	45.5	23.3	64.0	12.6	30.44	51.2	862.0	13.00	-40.0	0	16.2	35.3	35.5	0	1728	0	0	0	77.5	39.6	0.0
2017 12/09 15:00	45.4	22.9	66.6	11.7	30.44	51.4	854.0	13.01	-40.0	0	16.5	31.7	35.0	0	1728	0	0	0	77.9	39.4	0.0
2017 12/09 15:15	46.7	20.7	67.8	11.1	30.45	51.7	840.0	13.00	-40.0	0	16.5	29.9	34.4	0	1728	0	0	0	78.2	38.9	0.0
2017 12/09 15:30	47.5	18.9	73.8	10.4	30.45	52.0	815.0	13.02	-40.0	0	16.6	28.1	33.4	0	1728	0	0	0	78.2	38.6	0.0
2017 12/09 15:45	48.3	17.4	72.8	9.4	30.45	52.2	785.0	13.02	-40.0	0	16.6	28.1	33.1	0	1728	0	0	0	78.2	38.1	0.0
2017 12/09 16:00	50.4	15.5	97.8	7.2	30.46	52.4	754.0	13.00	-39.9	0	16.4	29.0	33.1	0	1728	0	0	0	78.2	37.7	0.0
2017 12/09 16:15	46.5	21.9	77.7	9.5	30.46	52.7	620.2	13.02	-40.0	0	16.7	29.0	33.6	0	1728	0	0	0	78.3	37.2	0.0
2017 12/09 16:30	43.0	23.1	57.0	13.9	30.47	53.1	353.2	13.03	-40.0	0	16.6	29.9	33.1	0	1728	0	0	0	78.4	36.9	0.0
2017 12/09 16:45	41.8	27.2	64.2	16.1	30.48	53.3	111.6	13.01	-40.0	0	16.6	29.9	33.5	0	1728	0	0	0	78.6	36.6	0.0
2017 12/09 17:00	43.8	20.6	73.4	13.7	30.48	53.5	10.2	13.01	-40.0	0	16.4	29.9	33.5	0	1728	0	0	0	78.2	36.2	0.0
2017 12/09 17:15	44.1	21.2	58.1	9.8	30.48	53.7	0.7	13.01	-40.0	0	16.5	29.0	33.5	0	1728	0	0	0	76.8	35.9	0.0
2017 12/09 17:30	46.0	16.6	67.5	12.4	30.49	53.9	0.0	12.99	-39.9	0	16.5	29.0	33.5	0	1728	0	0	0	76.2	35.7	0.0
2017 12/09 17:45	45.9	19.1	84.2	9.5	30.49	54.1	0.0	13.00	-39.9	0	16.6	29.9	33.4	0	1728	0	0	0	75.0	35.4	0.0
2017 12/09 18:00	42.9	26.9	63.3	12.8	30.50	54.1	0.0	13.00	-39.9	0	16.7	29.0	32.7	0	1728	0	0	0	75.9	35.2	0.0
2017 12/09 18:15	42.8	27.1	58.1	12.2	30.50	54.4	0.0	13.01	-39.9	0	16.5	29.9	33.0	0	1728	0	0	0	76.7	35.0	0.0
2017 12/09 18:30	44.6	17.9	124.1	11.2	30.50	54.5	0.0	12.99	-40.0	0	16.4	29.9	33.3	0	1728	0	0	0	77.3	34.8	0.0
2017 12/09 18:45	45.3	25.2	59.1	11.8	30.50	54.6	0.0	13.02	-40.0	0	16.6	29.9	33.6	0	1728	0	0	0	77.2	34.5	0.0
2017 12/09 19:00	44.9	20.1	53.6	12.1	30.50	54.6	0.0	13.02	-39.9	0	16.6	29.9	33.6	0	1728	0	0	0	76.6	34.4	0.0
2017 12/09 19:15	45.4	21.2	48.0	10.7	30.51	54.7	0.0	13.00	-40.0	0	16.6	29.9	33.4	0	1728	0	0	0	76.5	34.2	0.0
2017 12/09 19:30	39.9	29.4	56.2	10.7	30.51	54.8	0.0	13.02	-39.9	0	16.4	29.9	33.1	0	1728	0	0	0	75.9	34.1	0.0
2017 12/09 19:45	33.5	53.5	56.1	15.2	30.51	54.8	0.0	12.99	-40.0	0	16.5	30.8	33.2	0	1728	0	0	0	74.9	33.9	0.0
2017 12/09 20:00	35.4	51.6	57.6	14.0	30.51	54.8	0.0	13.00	-40.0	0	16.7	29.9	33.2	0	1728	0	0	0	73.8	33.7	0.0
2017 12/09 20:15	35.6	45.5	55.1	13.2	30.51	54.8	0.0	12.99	-40.0	0	16.5	29.9	33.4	0	1728	0	0	0	72.9	33.6	0.0
2017 12/09 20:30	33.9	48.9	55.9	12.5	30.50	54.7	0.0	13.01	-40.0	0	16.5	30.8	33.2	0	1728	0	0	0	72.0	33.6	0.0
2017 12/09 20:45	37.1	43.4	54.9	12.4	30.50	54.6	0.0	13.00	-40.0	0	16.5	29.9	33.1	0	1728	0	0	0	71.0	33.4	0.0
2017 12/09 21:00	40.0	31.3	61.5	13.8	30.50	54.6	0.0	13.01	-40.0	0	16.4	29.0	33.6	0	1728	0	0	0	71.1	33.3	0.0
2017 12/09 21:15	43.2	25.2	67.9	11.4	30.50	54.6	0.0	13.00	-40.0	0	16.5	29.0	33.2	0	1728	0	0	0	71.5	33.2	0.0
2017 12/09 21:30	45.4	20.3	60.9	10.6	30.51	54.6	0.0	13.01	-40.0	0	16.5	28.1	33.0	0	1728	0	0	0	72.8	33.1	0.0
2017 12/09 21:45	45.1	24.0	66.1	10.0	30.51	54.4	0.0	13.02	-40.0	0	16.6	28.1	32.3	0	1728	0	0	0	73.6	33.1	0.0
2017 12/09 22:00	41.8	26.1	62.4	11.9	30.51	54.4	0.0	13.02	-40.0	0	16.5	28.1	32.4	0	1728	0	0	0	73.8	32.9	0.0
2017 12/09 22:15	45.3	21.2	84.7	9.7	30.51	54.4	0.0	13.01	-40.0	0	16.3	28.1	31.6	0	1728	0	0	0	73.9	32.7	0.0
2017 12/09 22:30	45.9	20.6	69.3	8.2	30.51	54.1	0.0	13.01	-40.0	0	16.7	28.1	32.0	0	1728	0	0	0	74.0	32.7	0.0
2017 12/09 22:45	44.4	16.1	83.3	11.4	30.51	54.1	0.0	13.00	-40.0	0	16.6	29.0	31.4	0	1728	0	0	0	74.0	32.6	0.0
2017 12/09 23:00	42.3	27.4	66.8	14.7	30.51	53.9	0.0	13.00	-40.0	0	16.3	29.0	31.6	0	1728	0	0	0	74.0	32.5	0.0
2017 12/09 23:15	43.0	21.5	76.2	16.2	30.50	53.9	0.0	12.99	-40.0	0	16.5	27.2	30.8	0	1728	0	0	0	73.4	32.4	0.0
2017 12/09 23:30	40.9	28.6	62.9	15.8	30.50	53.8	0.0	13.01	-40.0	0	16.5	27.2	30.9	0	1728	0	0	0	72.7	32.3	0.0
2017 12/09 23:45	43.2	21.6	84.7	11.3	30.50	53.7	0.0	13.01	-40.0	0	16.5	27.2	31.1	0	1728	0	0	0	71.8	32.2	0.0
2017 12/10 00:00	46.6	16.4	96.2	8.9	30.50	53.6	0.0	13.02	-40.0	0	16.6	29.0	30.9	0	1728	0	0	0	70.8	32.2	0.0
2017 12/10 00:15	49.2	12.5	135.4	11.2	30.50	53.5	0.0	13.01	-40.0	0	16.5	29.9	30.3	0	1728	0	0	0	70.2	32.1	0.0
2017 12/10 00:30	50.3	11.6	114.8	9.5	30.50	53.4	0.0	12.99	-39.9	0	16.7	30.8	30.5	0	1728	0	0	0	69.8	32.0	0.0
2017 12/10 00:45	49.5	14.0	70.5	9.7	30.49	53.3	0.0	12.99	-39.9	0	16.6	30.8	30.0	0	1728	0	0	0	70.3	32.0	0.0
2017 12/10 01:00	47.8	14.0	64.7	10.5	30.49	53.2	0.0	13.01	-40.0	0	16.7	31.7	30.6	0	1728	0	0	0	70.4	31.8	0.0
2017 12/10 01:15	47.1	13.8	61.3	12.5	30.48	53.1	0.0	13.03	-40.0	0	16.5	29.9	30.3	0	1728	0	0	0	70.6	31.7	0.0
2017 12/10 01:30	41.5	24.2	65.5	12.1	30.48	53.1	0.0	13.02	-40.0	0	16.6	29.9	30.5	0	1728	0	0	0	70.8	31.6	0.0
2017 12/10 01:45	43.9	20.0	67.1	12.0	30.47	52.9	0.0	13.00	-40.0	0	16.5	30.8	30.5	0	1728	0	0	0	71.2	31.6	0.0
2017 12/10 02:00	42.0	21.3	59.8	11.8	30.47	52.9	0.0	13.01	-40.0	0	16.2	27.2	28.8	0	1728	0	0	0	71.3	31.5	0.0
2017 12/10 02:15	43.7	18.5	55.3	12.1	30.48	52.6	0.0	13.03	-40.1	0	16.4	26.3	28.8	0	1728	0	0	0	71.1	31.4	0.0
2017 12/10 02:30	44.6	17.1	64.8	12.0	30.48	52.6	0.0	12.98	-40.0	0	16.8	29.0	28.5	0	1728	0	0	0	70.8	31.3	0.0
2017 12/10 02:45	48.2	14.9	67.8	10.9	30.48	52.6	0.0	13.01	-40.0	0	16.7	32.6	28.7	0	1728	0	0	0	70.9	31.3	0.0
2017 12/10 03:00	46.2	13.7	73.5	10.7	30.48	52.4	0.0	13.02	-40.0	0	16.5	33.5	27.8	0	1728	0	0	0	70.8	31.2	0.0
2017 12/10 03:15	46.8	14.5	62.9	13.3	30.47	52.4	0.0	13.00	-40.0	0	16.2	27.2	28.6	0	1728	0	0	0	70.9	31.1	0.0
2017 12/10 03:30	46.6	13.7	65.8	13.4	30.47	52.3	0.0	13.02	-40.0	0	16.2	28.1	28.7	0	1728	0	0	0	70.9	31.1	0.0
2017 12/10 03:45	46.1	14.0	70.3	16.6	30.47	52.2	0.0	12.99	-39.9	0	16.3	27.2	28.1	0	1728	0	0	0	71.0	30.9	0.0
2017 12/10 04:00	44.3	17.0	65.1	17.5	30.46	52.2	0.0	13.00	-40.0	0	16.5	25.4	27.9	0	1728	0	0	0	70.3	30.9	0.0
2017 12/10 04:15	44.1	16.8	61.3	16.4	30.46	52.1	0.0	13.00	-40.0	0	16.3	25.4	27.2	0	1728	0	0	0	69.4	30.8	0.0
2017 12/10 04:30	45.5	15.1	71.3	13.4	30.46	52.0	0.0	13.01	-40.0	0	16.4	25.4	27.2	0	1728	0	0	0	69.2	30.7	0.0
2017 12/10 04:45	45.7	14.7	71.7	13.9	30.46	52.0	0.0	13.00	-40.0	0	16.2	26.3	27.6	0	1728	0	0	0	69.1	30.7	0.0
2017 12/10 05:00	47.7	13.0	69.6	15.1	30.46	51.8	0.0	13.00	-40.0	0	16.4	25.4	28.0	0	1728	0	0	0	69.3	30.6	0.0
2017 12/10 05:15	45.5	14.5	76.7	14.6	30.45	51.8	0.0	13.00	-40.0	0	16.4	24.5	27.9	0	1728	0	0	0	69.6	30.5	0.0
2017 12/10 05:30	45.5	14.0	69.7	15.4	30.45	51.7	0.0	13.00	-40.0	0	16.4	24.5	29.0	0	1728	0	0	0	69.5	30.5	0.0
2017 12/10 05:45	45.1	14.7	64.0	15.9	30.44	51.6	0.0	13.00	-40.0	0	16.3	24.5	27.8	0	1728	0	0	0	69.4	30.4	0.0
2017 12/10 06:00	46.0	13.7	64.1	15.7	30.44	51.6	0.0	13.00	-39.9	0	16.5	24.5	27.5	0	1728	0	0	0	69.0	30.4	0.0
2017 12/10 06:15	44.5	16.1	70.0	13.7	30.44	51.5	0.0	13.01	-40.0	0	16.4	24.5	27.9	0	1728	0	0	0	68.0	30.3	0.0
2017 12/10 06:30	44.6	15.4	69.3	8.9	30.44	51.4	0.0	13.00	-40.0	0	16.4	25.4	28.4	0	1728	0	0	0	67.4	30.2	0.0
2017 12/10 06:45	46.1	13.4	76.6	13.9	30.44	51.4	0.7	13.01	-39.9	0	16.5	25.4	28.5	0	1728	0	0	0	66.5	30.2	0.0
2017 12/10 07:00	45.9	13.6	68.2	16.8	30.43	51.4	6.1	12.98	-40.0	0	16.4	24.5	28.5	0	1728	0	0	0	64.9	30.2	0.0
2017 12/10 07:15	43.0	17.5	63.9	20.4	30.43	51.1	84.1	13.00	-40.0	0	16.5	23.6	27.5	0	1728	0	0	0	64.0	30.0	0.0
2017 12/10 07:30	41.1	21.1	53.2	21.3	30.43	51.1	371.2	13.00	-40.0	0	16.6	22.7	26.2	0	1728	0	0	0	63.2	30.0	0.0
2017 12/10 07:45	40.1	22.6	61.5	19.5	30.43	51.0	616.1	13.00	-40.0	0	16.3	22.7	25.9	0	1728	0	0	0	61.7	29.9	0.0
2017 12/10 08:00	38.7	26.1	51.0	19.1	30.43	50.9	722.0	12.98	-40.0	0	16.5	22.7	25.9	0	1728	0	0	0	60.4	29.8	0.0
2017 12/10 08:15	36.1	31.0	55.8	17.5	30.43	50.9	772.0	12.99	-40.0	0	16.4	25.4	26.7	0	1728	0	0	0	59.0	29.8	0.0
2017 12/10 08:30	35.9	32.3	46.7	20.0	30.44	50.9	800.0	12.99	-40.0	0	16.3	24.5	26.3	0	1728	0	0	0	57.9	29.8	0.0
2017 12/10 08:45	33.3	40.2	68.5	20.2	30.44	50.8	818.0	13.01	-40.0	0	16.3	23.6	26.4	0	1728	0	0	0	56.6	29.7	0.0
2017 12/10 09:00	30.4	49.3	57.6	25.1	30.43	50.7	824.0	13.00	-40.0	0	16.0	23.6	26.3	0	1728	0	0	0	55.7	29.6	0.0
2017 12/10 09:15	27.9	57.5	45.6	22.1	30.43	50.7	844.0	12.98	-39.9	0	16.3	21.8	25.1	0	1728	0	0	0	54.6	29.6	0.0
2017 12/10 09:30	26.3	64.0	64.2	24.7	30.43	50.6	852.0	12.99	-40.0	0	16.1	20.9	24.8	0	1728	0	0	0	53.8	29.6	0.0
2017 12/10 09:45	26.3	61.2	65.2	28.5	30.42	50.5	858.0	12.98	-40.0	0	16.4	20.0	25.1	0	1728	0	0	0	53.3	29.9	0.0
2017 12/10 10:00	24.6	64.6	62.6	32.0	30.43	50.5	861.0	12.99	-40.0	0	16.3	20.0	24.8	0	1728	0	0	0	52.8	30.5	0.0
2017 12/10 10:15	23.8	69.8	67.0	30.6	30.42	50.5	869.0	12.98	-40.0	0	16.1	20.9	25.3	0	1728	0	0	0	52.1	31.1	0.0
2017 12/10 10:30	24.6	67.1	69.5	30.6	30.41	50.5	874.0	13.00	-40.0	0	16.3	20.9	25.8	0	1728	0	0	0	52.0	31.3	0.0
2017 12/10 10:45	25.1	64.9	60.7	23.5	30.42	50.5	877.0	12.99	-40.0	0	16.4	20.9	26.2	0	1728	0	0	0	52.4	32.1	0.0
2017 12/10 11:00	28.3	56.2	189.0	6.8	30.42	50.5	879.0	12.99	-40.0	0	16.4	21.8	26.4	0	1728	0	0	0	52.5	33.0	0.0
2017 12/10 11:15	30.0	49.1	123.0	9.4	30.43	50.5	880.0	12.99	-40.0	0	16.6	22.7	26.8	0	1728	0	0	0	52.2	34.0	0.0
2017 12/10 11:30	32.2	41.8	54.2	15.9	30.42	50.6	881.0	12.99	-40.0	0	16.4	24.5	28.1	0	1728	0	0	0	52.2	34.8	0.0
2017 12/10 11:45	34.4	37.1	63.8	17.9	30.41	50.7	881.0	12.98	-40.0	0	16.5	29.0	30.6	0	1728	0	0	0	52.0	35.8	0.0
2017 12/10 12:00	37.4	31.8	66.2	17.5	30.40	50.7	880.0	12.98	-40.0	0	16.7	31.7	32.7	0	1728	0	0	0	52.2	36.5	0.0
2017 12/10 12:15	39.6	25.7	84.2	14.0	30.40	50.8	879.0	13.00	-40.0	0	16.5	33.5	33.6	0	1728	0	0	0	52.4	37.2	0.0
2017 12/10 12:30	40.4	23.1	73.9	15.5	30.40	50.9	877.0	13.01	-40.0	0	15.3	37.1	33.4	0	1728	0	0	0	52.4	37.7	0.0
2017 12/10 12:45	40.5	24.8	76.5	14.6	30.39	51.0	875.0	13.01	-40.0	0	15.1	35.3	33.0	0	1728	0	0	0	52.5	38.0	0.0
2017 12/10 13:00	42.2	21.9	62.3	18.8	30.39	51.1	873.0	13.01	-40.0	0	15.2	33.5	32.3	0	1728	0	0	0	52.3	38.1	0.0
2017 12/10 13:15	40.2	26.3	77.0	19.1	30.39	51.1	874.0	13.00	-40.0	0	15.8	29.9	31.7	0	1728	0	0	0	52.1	38.1	0.0
2017 12/10 13:30	38.7	27.2	59.8	21.9	30.38	51.4	875.0	13.00	-40.0	0	15.8	29.9	31.7	0	1728	0	0	0	52.1	38.1	0.0
2017 12/10 13:45	39.8	26.6	66.6	20.0	30.38	51.4	875.0	13.00	-40.0	0	15.8	29.0	32.0	0	1728	0	0	0	51.9	38.4	0.0
2017 12/10 14:00	40.6	23.3	63.5	15.9	30.38	51.5	866.0	13.00	-40.0	0	16.1	27.2	31.4	0	1728	0	0	0	51.7	38.1	0.0
2017 12/10 14:15	42.1	20.8	71.1	14.4	30.38	51.6	862.0	12.99	-40.0	0	15.5	29.0	30.0	0	1728	0	0	0	51.4	38.0	0.0
2017 12/10 14:30	40.4	24.4	65.0	16.6	30.38	51.8	866.0	12.99	-40.1	0	15.6	28.1	29.5	0	1728	0	0	0	51.4	37.9	0.0
2017 12/10 14:45	40.9	29.9	52.8	15.5	30.38	51.9	860.0	13.00	-40.0	0	15.7	27.2	29.0	0	1728	0	0	0	51.1	37.7	0.0
2017 12/10 15:00	39.3	27.3	63.3	14.4	30.38	52.0	852.0	13.02	-40.0	0	16.2	24.5	28.6	0	1728	0	0	0	50.9	37.2	0.0
2017 12/10 15:15	41.6	25.1	50.2	13.9	30.39	52.2	838.0	13.00	-40.0	0	16.5	22.7	28.6	0	1728	0	0	0	50.5	36.8	0.0
2017 12/10 15:30	42.9	23.4	63.8	12.2	30.40	52.4	814.0	13.00	-40.1	0	16.3	22.7	28.5	0	1728	0	0	0	50.0	36.5	0.0
2017 12/10 15:45	43.0	23.7	69.8	7.1	30.40	52.4	793.0	13.00	-39.9	0	16.2	22.7	28.4	0	1728	0	0	0	49.3	35.9	0.0
2017 12/10 16:00	42.9	23.1	53.1	10.2	30.41	52.6	756.0	13.00	-40.0	0	16.2	22.7	28.0	0	1728	0	0	0	48.7	35.4	0.0
2017 12/10 16:15	35.2	33.7	77.9	13.3	30.41	52.9	673.8	13.01	-40.0	0	16.2	22.7	27.9	0	1728	0	0	0	47.7	35.1	0.0
2017 12/10 16:30	41.5	24.8	64.4	15.1	30.41	52.9	471.9	13.03	-40.0	0	16.3	22.7	27.9	0	1728	0	0	0	47.1	34.8	0.0
2017 12/10 16:45	41.6	22.7	125.8	11.5	30.41	53.1	170.0	12.99	-40.0	0	16.4	22.7	27.8	0	1728	0	0	0	46.2	34.4	0.0
2017 12/10 17:00	39.4	25.8	59.3	15.8	30.41	53.3	19.7	12.99	-40.0	0	16.5	22.7	27.3	0	1728	0	0	0	45.6	34.1	0.0
2017 12/10 17:15	37.3	30.9	59.5	16.2	30.41	53.4	2.0	13.00	-40.0	0	16.3	22.7	27.5	0	1728	0	0	0	44.7	33.7	0.0
2017 12/10 17:30	36.8	36.0	53.5	18.7	30.41	53.5	0.0	13.01	-40.0	0	16.3	22.7	27.5	0	1728	0	0	0	43.9	33.5	0.0
2017 12/10 17:45	33.2	47.0	54.4	17.6	30.41	53.5	0.0	12.99	-39.9	0	16.2	23.6	28.4	0	1728	0	0	0	43.1	33.2	0.0
2017 12/10 18:00	27.8	65.4	54.9	19.3	30.41	53.6	0.0	13.02	-40.0	0	16.3	23.6	28.4	0	1728	0	0	0	42.4	32.9	0.0
2017 12/10 18:15	27.9	67.7	59.5	19.8	30.40	53.6	0.0	12.99	-40.0	0	16.4	23.6	28.5	0	1728	0	0	0	42.1	32.7	0.0
2017 12/10 18:30	27.1	70.4	75.6	20.4	30.40	53.7	0.0	13.02	-39.9	0	16.4	23.6	28.0	0	1728	0	0	0	41.6	32.5	0.0
2017 12/10 18:45	27.5	69.7	68.8	20.8	30.40	53.7	0.0	13.02	-40.0	0	16.5	23.6	28.4	0	1728	0	0	0	41.0	32.3	0.0
2017 12/10 19:00	26.7	71.1	103.4	13.4	30.40	53.5	0.0	13.02	-39.9	0	16.4	23.6	28.4	0	1728	0	0	0	40.6	32.1	0.0
2017 12/10 19:15	25.7	74.8	52.0	24.4	30.39	53.5	0.0	12.99	-40.0	0	16.4	23.6	28.0	0	1728	0	0	0	40.0	31.8	0.0
2017 12/10 19:30	25.5	75.6	71.3	27.1	30.38	53.5	0.0	12.99	-40.0	0	16.4	23.6	27.9	0	1728	0	0	0	39.6	31.7	0.0
2017 12/10 19:45	25.1	76.7	74.4	28.0	30.38	53.3	0.0	13.01	-40.0	0	16.3	23.6	28.1	0	1728	0	0	0	39.0	31.5	0.0
2017 12/10 20:00	25.1	76.6	65.8	20.4	30.38	53.3	0.0	13.01	-40.0	0	16.3	23.6	28.2	0	1728	0	0	0	38.7	31.3	0.0
2017 12/10 20:15	25.1	76.1	73.1	19.9	30.38	53.1	0.0	13.00	-40.0	0	16.4	23.6	28.1	0	1728	0	0	0	38.2	31.3	0.0
2017 12/10 20:30	25.1	75.1	66.6	22.5	30.38	53.1	0.0	12.99	-40.0	0	16.5	23.6	28.4	0	1728	0	0	0	38.0	31.1	0.0
2017 12/10 20:45	24.5	77.6	76.4	19.9	30.37	52.9	0.0	13.01	-40.0	0	16.4	22.7	27.7	0	1728	0	0	0	37.7	30.9	0.0
2017 12/10 21:00	26.6	70.8	86.6	27.2	30.36	52.7	0.0	12.98	-40.0	0	16.3	22.7	27.2	0	1728	0	0	0	37.4	30.8	0.0
2017 12/10 21:15	28.6	63.2	87.2	25.3	30.36	52.5	0.0	13.00	-39.8	0	16.2	22.7	27.1	0	1728	0	0	0	36.9	30.7	0.0
2017 12/10 21:30	28.3	64.7	121.9	23.9	30.36	52.3	0.0	13.00	-40.0	0	16.3	21.8	26.8	0	1728	0	0	0	36.8	30.6	0.0
2017 12/10 21:45	29.5	59.0	91.4	27.5	30.36	52.1	0.0	12.98	-40.0	0	16.3	21.8	26.4	0	1728	0	0	0	36.3	30.6	0.0
2017 12/10 22:00	31.0	52.2	91.8	28.8	30.35	51.9	0.0	12.98	-39.9	0	16.2	21.8	26.6	0	1728	0	0	0	36.1	30.4	0.0
2017 12/10 22:15	31.0	52.3	98.3	28.9	30.34	51.7	0.0	12.99	-40.0	0	16.2	21.8	26.2	0	1728	0	0	0	35.8	30.4	0.0
2017 12/10 22:30	30.2	55.6	99.4	27.9	30.35	51.6	0.0	13.02	-40.0	0	16.2	21.8	26.1	0	1728	0	0	0	35.4	30.3	0.0
2017 12/10 22:45	31.1	50.9	79.9	28.7	30.35	51.4	0.0	12.98	-39.9	0	16.4	20.9	26.1	0	1728	0	0	0	35.2	30.2	0.0
2017 12/10 23:00	28.8	58.0	98.9	29.3	30.35	51.1	0.0	12.98	-40.0	0	16.4	20.0	25.4	0	1728	0	0	0	35.0	30.0	0.0
2017 12/10 23:15	26.7	65.2	88.4	26.8	30.35	50.9	0.0	12.98	-40.0	0	16.2	20.0	24.8	0	1728	0	0	0	34.7	29.9	0.0
2017 12/10 23:30	29.7	55.3	107.0	29.8	30.35	50.7	0.0	13.00	-39.9	0	16.3	19.1	24.3	0	1728	0	0	0	34.4	29.8	0.0
2017 12/10 23:45	31.7	41.3	111.9	32.1	30.35	50.7	0.0	12.98	-39.9	0	16.2	19.1	24.0	0	1728	0	0	0	34.2	29.7	0.0
2017 12/11 00:00	32.5	42.7	119.2	19.2	30.37	50.5	0.0	13.01	-40.0	0	16.3	19.1	24.3	0	1728	0	0	0	33.9	29.6	0.0
2017 12/11 00:15	25.2	69.9	81.3	18.6	30.37	50.3	0.0	13.02	-40.0	0	16.4	19.1	24.4	0	1728	0	0	0	33.6	29.5	0.0
2017 12/11 00:30	28.1	58.8	67.0	18.0	30.37	50.1	0.0	12.98	-40.0	0	16.3	19.1	24.0	0	1728	0	0	0	33.4	29.4	0.0
2017 12/11 00:45	29.6	53.3	60.7	18.8	30.37	50.0	0.0	13.02	-39.9	0	16.2	19.1	24.1	0	1728	0	0	0	33.2	29.4	0.0
2017 12/11 01:00	29.0	54.6	57.2	17.5	30.37	49.9	0.0	13.02	-39.9	0	16.3	19.1	23.9	0	1728	0	0	0	32.9	29.1	0.0
2017 12/11 01:15	29.3	53.3	58.9	18.8	30.37	49.7	0.0	12.98	-40.0	0	16.3	19.1	24.3	0	1728	0	0	0	32.5	29.0	0.0
2017 12/11 01:30	30.7	49.7	61.2	16.6	30.36	49.6	0.0	13.02	-40.0	0	16.3	20.9	25.0	0	1728	0	0	0	32.4	28.9	0.0
2017 12/11 01:45	27.5	60.9	54.5	20.1	30.35	49.5	0.0	13.00	-40.0	0	16.3	20.9	24.9	0	1728	0	0	0	32.2	28.8	0.0
2017 12/11 02:00	25.8	65.5	60.9	20.2	30.35	49.2	0.0	12.98	-40.0	0	16.3	21.8	25.4	0	1728	0	0	0	31.8	28.7	0.0
2017 12/11 02:15	29.0	52.3	56.5	18.9	30.36	49.1	0.0	13.00	-39.9	0	16.2	20.9	25.7	0	1728	0	0	0	31.6	28.6	0.0
2017 12/11 02:30	28.8	56.5	70.5	21.8	30.36	49.0	0.0	13.00	-40.0	0	16.2	20.9	25.0	0	1728	0	0	0	31.6	28.5	0.0
2017 12/11 02:45	28.2	57.1	59.0	17.6	30.35	48.8	0.0	13.02	-40.0	0	16.3	20.0	24.4	0	1728	0	0	0	31.4	28.3	0.0
2017 12/11 03:00	29.5	50.8	62.1	17.3	30.35	48.6	0.0	13.00	-40.0	0	16.2	20.0	24.9	0	1728	0	0	0	31.1	28.2	0.0
2017 12/11 03:15	30.6	52.0	56.0	15.8	30.34	48.6	0.0	13.00	-40.0	0	16.3	20.0	24.8	0	1728	0	0	0	30.7	28.1	0.0
2017 12/11 03:30	26.9	62.4	60.0	16.6	30.34	48.4	0.0	13.00	-40.0	0	16.3	20.9	25.7	0	1728	0	0	0	30.7	28.0	0.0
2017 12/11 03:45	32.2	41.3	35.4	16.7	30.34	48.3	0.0	13.00	-40.0	0	16.4	22.7	26.3	0	1728	0	0	0	30.5	27.9	0.0
2017 12/11 04:00	32.8	39.6	51.3	15.1	30.34	48.2	0.0	13.01	-40.0	0	16.3	22.7	27.3	0	1728	0	0	0	30.2	27.8	0.0
2017 12/11 04:15	30.6	45.5	55.4	14.0	30.34	48.1	0.0	12.99	-40.0	0	16.3	22.7	27.1	0	1728	0	0	0	30.0	27.7	0.0
2017 12/11 04:30	35.6	30.5	58.6	13.8	30.33	48.0	0.0	13.01	-40.2	0	16.2	22.7	27.2	0	1728	0	0	0	29.9	27.6	0.0
2017 12/11 04:45	39.9	18.2	80.8	12.4	30.34	48.0	0.0	13.02	-40.0	0	16.3	22.7	26.1	0	1728	0	0	0	29.8	27.5	0.0
2017 12/11 05:00	44.4	13.3	165.4	7.9	30.33	47.9	0.0	13.01	-40.0	0	16.1	22.7	26.1	0	1728	0	0	0	29.6	27.5	0.0
2017 12/11 05:15	50.0	9.2	216.8	11.3	30.33	47.8	0.0	12.98	-40.0	0	16.2	21.8	24.9	0	1728	0	0	0	29.4	27.3	0.0
2017 12/11 05:30	50.3	8.8	176.7	16.4	30.33	47.6	0.0	13.00	-40.0	0	16.1	21.8	24.3	0	1728	0	0	0	29.2	27.3	0.0
2017 12/11 05:45	51.0	8.1	196.1	13.8	30.33	47.4	0.0	13.01	-40.0	0	16.3	20.9	25.0	0	1728	0	0	0	29.0	27.2	0.0
2017 12/11 06:00	50.4	8.1	193.5	14.4	30.32	47.4	0.0	13.00	-40.0	0	16.1	18.2	23.3	0	1728	0	0	0	28.8	27.1	0.0
2017 12/11 06:15	51.0	7.9	178.4	12.4	30.32	47.2	0.0	13.00	-40.0	0	16.3	19.1	23.6	0	1728	0	0	0	28.7	27.0	0.0
2017 12/11 06:30	50.1	8.2	163.1	11.5	30.32	47.0	0.0	13.02	-40.0	0	16.2	20.9	24.0	0	1728	0	0	0	28.5	26.9	0.0
2017 12/11 06:45	49.9	8.4	182.1	9.8	30.32	47.0	0.3	13.00	-39.9	0	16.2	21.8	25.7	0	1728	0	0	0	28.0	26.8	0.0
2017 12/11 07:00	50.4	8.2	177.9	11.3	30.32	46.8	5.4	12.99	-40.0	0	16.2	21.8	25.4	0	1728	0	0	0	27.8	26.7	0.0
2017 12/11 07:15	50.4	8.1	176.1	13.3	30.32	46.7	73.6	13.02	-40.0	0	16.1	20.0	23.9	0	1728	0	0	0	27.8	26.6	0.0
2017 12/11 07:30	49.9	8.3	176.6	12.4	30.32	46.6	347.8	13.00	-40.0	0	16.2	18.2	23.3	0	1728	0	0	0	27.7	26.6	0.0
2017 12/11 07:45	49.3	9.2	165.4	10.9	30.33	46.6	604.0	13.00	-40.0	0	16.1	19.1	22.8	0	1728	0	0	0	27.5	26.4	0.0
2017 12/11 08:00	50.3	8.1	177.0	14.0	30.33	46.5	714.0	13.01	-39.9	0	16.1	19.1	23.0	0	1728	0	0	0	27.1	26.3	0.0
2017 12/11 08:15	50.8	8.0	175.4	10.9	30.33	46.5	766.0	13.02	-40.0	0	16.1	18.2	22.7	0	1728	0	0	0	27.1	26.3	0.0
2017 12/11 08:30	50.9	8.1	182.8	8.6	30.34	46.5	795.0	12.99	-40.0	0	16.2	20.0	22.6	0	1728	0	0	0	27.0	26.2	0.0
2017 12/11 08:45	50.4	8.1	206.9	5.5	30.35	46.5	815.0	13.02	-40.0	0	16.2	20.9	23.5	0	1728	0	0	0	26.9	26.2	0.0
2017 12/11 09:00	50.0	8.6	166.2	9.8	30.34	46.5	829.0	13.00	-40.0	0	15.9	22.7	24.4	0	1728	0	0	0	26.8	26.1	0.0
2017 12/11 09:15	49.4	8.9	173.1	12.8	30.34	46.5	839.0	13.02	-39.9	0	16.0	21.8	24.4	0	1728	0	0	0	26.6	26.1	0.0
2017 12/11 09:30	48.8	9.7	171.1	12.1	30.34	46.5	848.0	13.00	-40.0	0	16.1	21.8	24.5	0	1728	0	0	0	26.6	26.1	0.0
2017 12/11 09:45	49.9	9.1	185.0	9.3	30.35	46.6	855.0	13.01	-40.0	0	16.2	22.7	24.9	0	1728	0	0	0	26.9	26.7	0.0
2017 12/11 10:00	49.5	9.6	155.2	10.5	30.35	46.7	861.0	12.99	-40.0	0	16.3	23.6	25.4	0	1728	0	0	0	28.0	27.6	0.0
2017 12/11 10:15	49.8	9.1	149.8	10.4	30.36	46.9	865.0	13.00	-40.0	0	16.2	23.6	26.2	0	1728	0	0	0	29.2	28.6	0.0
2017 12/11 10:30	50.1	9.5	159.4	9.3	30.36	47.1	869.0	12.99	-40.0	0	16.2	26.3	27.0	0	1728	0	0	0	30.4	29.0	0.0
2017 12/11 10:45	50.3	10.2	174.1	10.2	30.36	47.2	872.0	13.02	-40.0	0	16.5	29.0	29.3	0	1728	0	0	0	32.0	30.0	0.0
2017 12/11 11:00	50.4	9.6	171.5	10.1	30.37	47.4	874.0	12.98	-40.0	0	16.6	29.9	29.8	0	1728	0	0	0	33.5	31.2	0.0
2017 12/11 11:15	50.3	10.4	181.2	10.1	30.37	47.7	875.0	13.01	-40.0	0	16.5	30.8	29.4	0	1728	0	0	0	34.9	32.6	0.0
2017 12/11 11:30	50.6	10.3	178.6	10.8	30.37	48.0	875.0	13.00	-40.0	0	16.1	35.3	30.3	0	1728	0	0	0	35.8	33.5	0.0
2017 12/11 11:45	49.9	11.1	184.2	14.5	30.37	48.2	876.0	13.00	-40.0	0	16.3	33.5	30.2	0	1728	0	0	0	37.1	34.7	0.0
2017 12/11 12:00	49.5	11.4	189.1	15.2	30.38	48.4	875.0	13.01	-40.0	0	16.2	35.3	28.5	0	1729	0	0	0	38.4	35.5	0.0
2017 12/11 12:15	48.8	12.8	197.1	13.4	30.38	48.6	874.0	13.00	-40.0	0	16.1	46.1	29.0	0	1729	0	0	0	39.0	36.3	0.0
2017 12/11 12:30	48.4	13.6	226.8	15.4	30.39	48.9	871.0	13.01	-40.0	0	15.2	54.2	30.4	0	1729	0	0	0	39.6	37.0	0.0
2017 12/11 12:45	47.9	15.5	226.7	18.9	30.39	49.2	869.0	12.98	-40.0	0	15.0	55.1	31.8	0	1729	0	0	0	40.3	37.6	0.0
2017 12/11 13:00	48.1	14.3	228.3	17.6	30.39	49.4	867.0	13.01	-40.0	0	15.2	53.3	32.3	0	1729	0	0	0	41.1	37.8	0.0
2017 12/11 13:15	48.2	14.1	219.9	16.9	30.39	49.7	869.0	13.02	-40.0	0	15.6	49.7	32.7	0	1729	0	0	0	42.3	38.1	0.0
2017 12/11 13:30	49.2	13.9	226.3	14.4	30.39	49.9	871.0	13.01	-40.0	0	15.9	51.5	34.0	0	1729	0	0	0	43.1	38.2	0.0
2017 12/11 13:45	49.0	15.1	230.0	14.7	30.39	50.1	869.0	13.02	-40.0	0	15.2	53.3	33.5	0	1729	0	0	0	43.9	38.8	0.0
2017 12/11 14:00	49.3	13.7	217.2	13.2	30.39	50.4	862.0	13.00	-40.0	0	15.5	51.5	34.6	0	1729	0	0	0	44.2	38.8	0.0
2017 12/11 14:15	49.8	13.4	236.5	13.4	30.40	50.7	856.0	13.02	-40.0	0	13.5	53.3	36.2	0	1729	0	0	0	44.5	38.7	0.0
2017 12/11 14:30	49.8	14.0	220.4	12.6	30.40	50.9	861.0	13.00	-40.0	0	13.6	50.6	34.9	0	1729	0	0	0	44.5	38.8	0.0
2017 12/11 14:45	49.8	14.4	231.0	12.1	30.41	51.1	852.0	13.00	-40.0	0	13.7	43.4	33.7	0	1729	0	0	0	44.4	38.5	0.0
2017 12/11 15:00	49.5	14.2	252.9	12.9	30.41	51.4	846.0	13.01	-40.0	0	15.2	33.5	31.4	0	1729	0	0	0	44.2	38.1	0.0
2017 12/11 15:15	49.0	15.9	245.0	18.2	30.42	51.7	833.0	13.01	-40.0	0	15.3	43.4	32.1	0	1729	0	0	0	43.7	37.6	0.0
2017 12/11 15:30	48.8	16.0	250.9	19.5	30.42	52.0	807.0	13.01	-39.9	0	15.8	45.2	30.4	0	1729	0	0	0	43.3	37.1	0.0
2017 12/11 15:45	48.5	16.2	259.3	17.4	30.43	52.2	784.0	13.02	-40.0	0	16.1	45.2	28.1	0	1729	0	0	0	42.6	36.5	0.0
2017 12/11 16:00	48.7	15.5	229.4	16.4	30.43	52.4	734.0	12.98	-40.0	0	15.4	44.3	27.2	0	1729	0	0	0	41.9	35.9	0.0
2017 12/11 16:15	48.3	16.2	243.1	13.5	30.43	52.6	652.1	12.99	-39.9	0	15.6	43.4	26.6	0	1729	0	0	0	41.1	35.3	0.0
2017 12/11 16:30	47.9	16.7	244.2	14.0	30.44	52.9	374.2	13.02	-39.9	0	14.4	41.6	24.6	0	1729	0	0	0	40.4	34.9	0.0
2017 12/11 16:45	47.7	16.8	229.4	9.8	30.44	53.1	130.3	13.00	-40.0	0	15.8	28.1	22.6	0	1729	0	0	0	39.7	34.4	0.0
2017 12/11 17:00	47.9	16.8	240.8	9.3	30.45	53.3	14.9	13.03	-40.0	0	16.1	29.0	21.3	0	1729	0	0	0	38.9	34.0	0.0
2017 12/11 17:15	47.2	18.2	275.8	10.9	30.45	53.5	1.4	13.01	-40.0	0	16.3	32.6	19.9	0	1729	0	0	0	38.2	33.5	0.0
2017 12/11 17:30	47.3	20.8	294.4	7.5	30.47	53.7	0.0	13.00	-40.0	0	16.0	30.8	19.6	0	1729	0	0	0	37.8	33.2	0.0
2017 12/11 17:45	47.1	22.5	298.6	6.1	30.47	53.8	0.0	13.00	-40.0	0	16.1	29.9	18.3	0	1729	0	0	0	37.1	32.9	0.0
2017 12/11 18:00	47.1	21.6	298.5	4.8	30.47	53.9	0.0	13.02	-40.0	0	16.3	34.4	18.0	0	1729	0	0	0	36.6	32.5	0.0
2017 12/11 18:15	47.5	17.6	204.4	6.9	30.47	54.1	0.0	13.03	-40.0	0	15.9	35.3	16.5	0	1729	0	0	0	36.0	32.1	0.0
2017 12/11 18:30	47.2	18.8	174.0	6.9	30.47	54.1	0.0	13.04	-40.0	0	16.2	34.4	15.9	0	1729	0	0	0	35.7	31.8	0.0
2017 12/11 18:45	46.8	17.6	203.2	7.2	30.48	54.3	0.0	12.99	-40.0	0	16.1	33.5	16.7	0	1729	0	0	0	35.1	31.5	0.0
2017 12/11 19:00	47.1	17.2	193.7	7.4	30.48	54.4	0.0	13.02	-40.0	0	16.1	35.3	15.8	0	1729	0	0	0	34.8	31.2	0.0
2017 12/11 19:15	46.5	19.8	147.7	8.6	30.48	54.4	0.0	13.00	-40.0	0	15.9	36.2	14.5	0	1729	0	0	0	34.3	30.9	0.0
2017 12/11 19:30	46.4	18.3	148.4	8.9	30.49	54.4	0.0	13.02	-40.0	0	16.0	36.2	14.1	0	1729	0	0	0	34.0	30.7	0.0
2017 12/11 19:45	46.5	17.6	148.2	8.5	30.49	54.4	0.0	12.99	-40.0	0	15.8	35.3	12.9	0	1729	0	0	0	33.5	30.4	0.0
2017 12/11 20:00	46.8	17.5	153.8	8.8	30.48	54.4	0.0	13.00	-40.0	0	15.9	35.3	14.2	0	1729	0	0	0	33.1	30.3	0.0
2017 12/11 20:15	47.7	15.5	174.3	11.3	30.49	54.4	0.0	13.00	-40.0	0	15.7	35.3	14.0	0	1729	0	0	0	32.6	30.0	0.0
2017 12/11 20:30	47.9	15.3	184.6	10.5	30.49	54.4	0.0	13.02	-40.0	0	16.2	36.2	13.6	0	1729	0	0	0	32.3	29.8	0.0
2017 12/11 20:45	48.1	14.2	180.6	13.1	30.49	54.4	0.0	12.99	-40.0	0	15.3	38.0	12.4	0	1729	0	0	0	32.0	29.6	0.0
2017 12/11 21:00	48.3	14.3	166.4	12.1	30.50	54.4	0.0	13.00	-40.0	0	15.6	38.0	12.7	0	1729	0	0	0	31.6	29.4	0.0
2017 12/11 21:15	48.3	13.8	169.5	13.3	30.49	54.3	0.0	13.00	-39.9	0	15.9	37.1	12.9	0	1729	0	0	0	31.4	29.1	0.0
2017 12/11 21:30	48.3	12.5	163.1	16.2	30.49	54.1	0.0	13.00	-40.0	0	16.0	38.0	11.5	0	1729	0	0	0	31.1	29.0	0.0
2017 12/11 21:45	48.7	11.7	168.1	15.7	30.49	54.1	0.0	13.01	-40.0	0	15.5	38.0	12.0	0	1729	0	0	0	30.9	28.8	0.0
2017 12/11 22:00	48.8	11.6	165.4	16.2	30.50	53.9	0.0	13.01	-40.0	0	15.9	38.0	11.3	0	1729	0	0	0	30.6	28.7	0.0
2017 12/11 22:15	48.7	11.6	178.9	15.4	30.50	53.9	0.0	13.02	-40.0	0	16.3	38.0	9.3	0	1729	0	0	0	30.6	28.5	0.0
2017 12/11 22:30	49.3	11.1	184.1	18.2	30.49	53.7	0.0	13.02	-40.0	0	16.2	38.9	10.0	0	1729	0	0	0	30.5	28.5	0.0
2017 12/11 22:45	48.5	11.3	175.5	18.2	30.49	53.7	0.0	12.99	-40.0	0	15.6	38.9	9.9	0	1729	0	0	0	30.3	28.2	0.0
2017 12/11 23:00	49.2	11.2	188.8	21.2	30.48	53.5	0.0	12.99	-40.0	0	15.8	43.4	9.6	0	1729	0	0	0	29.9	28.1	0.0
2017 12/11 23:15	49.2	11.0	190.9	15.7	30.48	53.3	0.0	12.99	-40.0	0	15.5	44.3	8.9	0	1729	0	0	0	29.8	27.9	0.0
2017 12/11 23:30	49.0	10.7	189.0	15.7	30.48	53.1	0.0	13.00	-40.0	0	15.9	46.1	9.1	0	1729	0	0	0	29.6	27.8	0.0
2017 12/11 23:45	48.8	10.4	197.7	14.5	30.48	52.9	0.0	13.00	-39.9	0	16.0	47.0	8.8	0	1729	0	0	0	29.4	27.7	0.0
2017 12/12 00:00	48.4	10.3	203.5	13.8	30.48	52.9	0.0	13.02	-40.0	0	15.7	45.2	8.7	0	1729	0	0	0	29.2	27.6	0.0
2017 12/12 00:15	48.5	10.4	199.2	14.2	30.48	52.6	0.0	13.00	-39.9	0	15.6	46.1	8.4	0	1729	0	0	0	29.0	27.5	0.0
2017 12/12 00:30	49.2	9.9	185.2	16.7	30.47	52.4	0.0	13.02	-40.0	0	15.6	47.9	8.6	0	1729	0	0	0	28.8	27.3	0.0
2017 12/12 00:45	48.3	10.5	198.2	14.6	30.47	52.3	0.0	13.02	-40.0	0	16.1	47.0	8.2	0	1729	0	0	0	28.6	27.2	0.0
2017 12/12 01:00	48.5	10.2	214.3	22.2	30.47	52.2	0.0	12.99	-40.0	0	15.8	46.1	8.0	0	1729	0	0	0	28.5	27.1	0.0
2017 12/12 01:15	48.7	10.0	211.9	22.0	30.47	52.0	0.0	12.99	-40.0	0	15.6	44.3	8.0	0	1729	0	0	0	28.3	27.1	0.0
2017 12/12 01:30	48.4	10.0	216.0	19.4	30.48	51.8	0.0	12.99	-40.0	0	16.0	44.3	8.1	0	1729	0	0	0	28.1	27.0	0.0
2017 12/12 01:45	48.2	10.3	229.0	19.6	30.48	51.7	0.0	13.01	-40.0	0	15.7	43.4	7.9	0	1729	0	0	0	28.1	26.9	0.0
2017 12/12 02:00	48.3	10.3	219.2	19.8	30.48	51.6	0.0	12.99	-40.0	0	15.5	44.3	7.5	0	1729	0	0	0	28.0	26.8	0.0
2017 12/12 02:15	47.9	10.7	215.5	18.0	30.48	51.4	0.0	13.00	-40.0	0	15.7	44.3	8.0	0	1729	0	0	0	27.8	26.7	0.0
2017 12/12 02:30	47.1	11.7	215.5	16.0	30.47	51.2	0.0	12.99	-40.0	0	15.6	44.3	8.4	0	1729	0	0	0	27.7	26.7	0.0
2017 12/12 02:45	47.0	11.6	195.1	14.0	30.46	51.1	0.0	13.01	-39.9	0	15.9	44.3	8.4	0	1729	0	0	0	27.7	26.6	0.0
2017 12/12 03:00	47.5	10.9	192.7	14.0	30.45	51.1	0.0	12.98	-40.0	0	15.7	45.2	8.4	0	1729	0	0	0	27.5	26.6	0.0
2017 12/12 03:15	47.3	10.3	195.5	11.4	30.46	50.9	0.0	13.02	-39.9	0	15.7	44.3	8.3	0	1729	0	0	0	27.3	26.6	0.0
2017 12/12 03:30	47.5	11.0	203.1	12.8	30.45	50.9	0.0	13.00	-40.0	0	15.8	44.3	8.7	0	1729	0	0	0	27.3	26.4	0.0
2017 12/12 03:45	47.8	10.9	191.5	11.5	30.45	50.9	0.0	13.00	-40.0	0	15.8	45.2	8.9	0	1729	0	0	0	27.1	26.3	0.0
2017 12/12 04:00	48.2	10.6	226.8	14.4	30.45	50.9	0.0	12.99	-40.0	0	15.8	44.3	9.3	0	1729	0	0	0	27.0	26.3	0.0
2017 12/12 04:15	48.5	9.2	221.9	15.5	30.44	50.7	0.0	13.00	-40.0	0	16.1	42.5	9.0	0	1729	0	0	0	27.0	26.2	0.0
2017 12/12 04:30	48.8	8.8	225.9	17.3	30.44	50.7	0.0	13.01	-40.0	0	15.9	43.4	9.3	0	1729	0	0	0	26.8	26.3	0.0
2017 12/12 04:45	48.3	9.1	241.2	13.2	30.44	50.7	0.0	13.01	-40.0	0	15.9	43.4	11.3	0	1729	0	0	0	26.8	26.2	0.0
2017 12/12 05:00	48.2	8.8	226.4	15.3	30.44	50.7	0.0	12.99	-40.0	0	15.8	43.4	11.6	0	1729	0	0	0	26.7	26.1	0.0
2017 12/12 05:15	48.4	8.9	227.5	17.4	30.44	50.6	0.0	13.00	-39.9	0	15.7	44.3	11.4	0	1729	0	0	0	26.7	26.1	0.0
2017 12/12 05:30	48.2	9.1	205.2	14.6	30.44	50.5	0.0	13.02	-39.9	0	15.7	44.3	11.7	0	1729	0	0	0	26.8	26.1	0.0
2017 12/12 05:45	48.4	8.9	227.4	17.9	30.43	50.5	0.0	13.02	-40.0	0	15.6	44.3	11.4	0	1729	0	0	0	26.6	26.1	0.0
2017 12/12 06:00	48.1	8.6	223.7	17.2	30.43	50.5	0.0	13.00	-40.0	0	15.7	43.4	11.6	0	1729	0	0	0	26.6	26.0	0.0
2017 12/12 06:15	48.2	8.8	223.6	16.7	30.43	50.4	0.0	12.99	-40.0	0	15.8	43.4	11.6	0	1729	0	0	0	26.4	26.0	0.0
2017 12/12 06:30	47.9	9.2	223.3	16.8	30.43	50.4	0.0	13.01	-40.0	0	15.7	43.4	11.8	0	1729	0	0	0	26.4	26.0	0.0
2017 12/12 06:45	48.2	9.4	218.1	16.5	30.43	50.3	0.0	13.01	-40.0	0	15.7	43.4	11.6	0	1729	0	0	0	26.3	25.9	0.0
2017 12/12 07:00	47.8	9.6	230.7	14.6	30.44	50.3	2.7	12.98	-40.0	0	15.7	42.5	11.9	0	1729	0	0	0	26.3	25.9	0.0
2017 12/12 07:15	47.8	10.0	232.3	14.1	30.44	50.3	47.5	13.02	-40.0	0	15.6	43.4	11.9	0	1729	0	0	0	26.2	25.9	0.0
2017 12/12 07:30	47.7	9.8	229.4	15.5	30.44	50.1	231.4	13.01	-40.0	0	15.6	44.3	11.9	0	1729	0	0	0	26.2	25.9	0.0
2017 12/12 07:45	47.6	9.8	227.5	15.1	30.44	50.1	431.2	13.02	-40.0	0	15.9	43.4	12.0	0	1729	0	0	0	26.1	25.8	0.0
2017 12/12 08:00	47.5	9.9	229.0	14.1	30.45	50.1	565.6	12.99	-40.0	0	15.6	43.4	12.5	0	1729	0	0	0	26.1	25.8	0.0
2017 12/12 08:15	47.5	10.4	234.4	11.5	30.45	50.1	647.3	12.98	-40.0	0	15.9	43.4	13.2	0	1729	0	0	0	26.1	25.8	0.0
2017 12/12 08:30	47.5	10.5	217.6	13.3	30.46	50.1	701.0	13.01	-40.0	0	15.4	44.3	13.4	0	1729	0	0	0	26.0	25.8	0.0
2017 12/12 08:45	47.7	10.6	222.2	12.1	30.46	50.1	740.0	13.02	-40.0	0	15.9	45.2	14.5	0	1729	0	0	0	26.1	25.8	0.0
2017 12/12 09:00	47.7	10.7	223.3	10.1	30.46	50.1	768.0	13.02	-40.0	0	15.6	46.1	15.2	0	1729	0	0	0	26.0	25.9	0.0
2017 12/12 09:15	48.2	10.4	214.4	10.5	30.46	50.1	786.0	12.99	-39.9	0	15.6	47.0	16.0	0	1729	0	0	0	26.0	25.9	0.0
2017 12/12 09:30	48.3	9.8	216.8	12.0	30.46	50.1	807.0	12.99	-40.0	0	15.7	47.9	17.1	0	1729	0	0	0	26.3	26.1	0.0
2017 12/12 09:45	48.5	10.5	212.4	11.1	30.47	50.1	824.0	13.00	-40.0	0	15.9	47.9	18.8	0	1729	0	0	0	27.2	26.4	0.0
2017 12/12 10:00	48.8	10.4	224.2	9.4	30.47	50.2	826.0	13.01	-39.9	0	15.8	48.8	20.1	0	1729	0	0	0	28.5	27.2	0.0
2017 12/12 10:15	48.8	10.5	236.3	11.7	30.47	50.3	842.0	13.02	-40.0	0	15.8	49.7	22.3	0	1729	0	0	0	29.9	27.9	0.0
2017 12/12 10:30	49.0	10.7	230.2	11.3	30.47	50.3	849.0	13.00	-40.0	0	15.7	49.7	24.0	0	1729	0	0	0	31.2	28.5	0.0
2017 12/12 10:45	49.3	10.9	217.7	12.5	30.46	50.5	855.0	13.00	-40.0	0	15.9	49.7	25.4	0	1729	0	0	0	33.2	29.2	0.0
2017 12/12 11:00	49.3	11.0	210.4	14.0	30.46	50.5	860.0	13.01	-40.0	0	16.0	50.6	26.1	0	1729	0	0	0	35.0	30.3	0.0
2017 12/12 11:15	49.6	11.4	209.5	10.2	30.45	50.6	861.0	13.02	-40.1	0	16.0	50.6	27.7	0	1730	0	0	0	36.9	31.5	0.0
2017 12/12 11:30	50.0	13.0	195.1	11.3	30.45	50.7	865.0	13.03	-40.0	0	15.8	51.5	29.0	0	1731	0	0	0	38.4	32.4	0.0
2017 12/12 11:45	50.3	12.6	213.4	12.8	30.44	50.9	867.0	13.02	-40.0	0	15.9	51.5	30.4	0	1731	0	0	0	40.4	33.6	0.0
2017 12/12 12:00	50.3	12.5	238.2	13.9	30.44	50.9	871.0	13.00	-40.0	0	15.9	52.4	32.7	0	1732	0	0	0	42.2	34.7	0.0
2017 12/12 12:15	51.0	13.5	200.6	15.2	30.43	51.1	883.0	13.01	-40.0	0	15.9	53.3	37.0	0	1733	0	0	0	44.0	35.5	0.0
2017 12/12 12:30	50.8	13.6	234.1	11.8	30.43	51.4	869.0	13.01	-40.0	0	15.4	56.0	47.8	0	1733	0	0	0	45.3	36.5	0.0
2017 12/12 12:45	50.8	12.2	225.3	11.4	30.43	51.6	862.0	13.03	-40.0	0	15.3	54.2	51.2	0	1734	0	0	0	46.6	37.1	0.0
2017 12/12 13:00	50.8	13.4	233.9	11.4	30.42	51.7	869.0	12.99	-40.0	0	15.2	55.1	51.7	0	1735	0	0	0	47.9	37.6	0.0
2017 12/12 13:15	50.8	13.8	301.2	10.5	30.42	52.0	864.0	13.00	-40.0	0	15.6	53.3	51.4	0	1735	0	0	0	48.8	38.0	0.0
2017 12/12 13:30	50.8	13.5	239.8	13.5	30.42	52.2	865.0	13.00	-40.0	0	15.6	53.3	51.4	0	1735	0	0	0	49.5	38.5	0.0
2017 12/12 13:45	51.1	13.8	260.0	10.1	30.42	52.4	867.0	13.00	-40.0	0	15.5	54.2	49.0	0	1735	0	0	0	50.4	38.9	0.0
2017 12/12 14:00	50.8	14.7	276.6	6.4	30.42	52.6	864.0	13.00	-40.0	0	15.7	53.3	49.8	0	1736	0	0	0	51.0	39.0	0.0
2017 12/12 14:15	50.6	14.2	270.5	9.2	30.42	52.9	861.0	13.03	-39.9	0	14.8	56.9	46.1	0	1736	0	0	0	51.5	39.2	0.0
2017 12/12 14:30	50.6	15.8	266.7	9.3	30.42	53.1	864.0	12.99	-40.0	0	14.5	56.9	43.9	0	1736	0	0	0	52.1	39.3	0.0
2017 12/12 14:45	50.6	15.1	260.5	7.8	30.42	53.4	864.0	13.01	-40.0	0	14.9	56.0	41.8	0	1737	0	0	0	52.2	39.3	0.0
2017 12/12 15:00	50.6	16.4	233.5	4.9	30.42	53.7	857.0	13.02	-40.0	0	15.1	52.4	40.8	0	1737	0	0	0	52.4	39.0	0.0
2017 12/12 15:15	50.6	15.5	206.5	6.4	30.42	53.9	835.0	13.02	-40.0	0	15.2	50.6	39.8	0	1737	0	0	0	52.1	38.8	0.0
2017 12/12 15:30	50.5	16.4	220.4	6.1	30.42	54.1	807.0	13.00	-40.0	0	15.4	49.7	39.5	0	1737	0	0	0	51.9	38.6	0.0
2017 12/12 15:45	49.4	16.0	213.2	7.8	30.42	54.5	740.0	13.02	-40.0	0	15.3	48.8	38.0	0	1737	0	0	0	51.2	38.2	0.0
2017 12/12 16:00	49.4	16.1	224.0	8.1	30.42	54.7	720.0	13.00	-40.0	0	15.4	47.9	36.4	0	1737	0	0	0	50.4	38.0	0.0
2017 12/12 16:15	49.3	16.6	222.5	7.9	30.42	55.0	574.7	13.02	-40.0	0	15.2	47.0	35.2	0	1737	0	0	0	49.5	37.7	0.0
2017 12/12 16:30	48.9	16.1	230.4	7.4	30.43	55.2	313.8	13.03	-40.0	0	15.2	46.1	34.3	0	1737	0	0	0	48.8	37.4	0.0
2017 12/12 16:45	48.7	18.2	277.7	5.5	30.43	55.4	76.0	13.03	-40.0	0	15.4	46.1	33.2	0	1737	0	0	0	48.0	36.9	0.0
2017 12/12 17:00	48.8	17.2	254.4	4.9	30.43	55.6	7.5	13.00	-40.0	0	15.4	46.1	32.6	0	1737	0	0	0	47.2	36.6	0.0
2017 12/12 17:15	48.4	16.5	277.0	3.3	30.43	55.6	0.7	13.02	-40.0	0	15.4	46.1	32.6	0	1737	0	0	0	46.6	36.2	0.0
2017 12/12 17:30	48.8	16.1	261.3	5.8	30.43	55.9	0.0	13.03	-40.0	0	15.4	46.1	31.7	0	1737	0	0	0	46.0	36.0	0.0
2017 12/12 17:45	48.8	16.7	264.2	6.9	30.43	56.1	0.0	13.01	-40.0	0	15.3	47.0	32.1	0	1737	0	0	0	45.5	35.7	0.0
2017 12/12 18:00	48.7	17.0	264.0	6.9	30.43	56.1	0.0	13.00	-40.0	0	15.3	47.0	31.5	0	1737	0	0	0	44.9	35.4	0.0
2017 12/12 18:15	48.9	17.3	256.7	7.4	30.43	56.3	0.0	13.03	-40.0	0	15.4	46.1	31.8	0	1737	0	0	0	44.4	35.2	0.0
2017 12/12 18:30	48.8	17.4	250.4	6.9	30.42	56.3	0.0	13.02	-40.0	0	15.3	46.1	31.6	0	1737	0	0	0	44.1	35.0	0.0
2017 12/12 18:45	48.8	17.5	238.9	5.1	30.42	56.4	0.0	13.00	-40.0	0	15.4	44.3	30.6	0	1737	0	0	0	43.4	34.8	0.0
2017 12/12 19:00	48.5	17.6	245.2	4.4	30.42	56.5	0.0	13.03	-40.0	0	15.2	45.2	29.7	0	1737	0	0	0	42.9	34.7	0.0
2017 12/12 19:15	48.4	17.4	258.9	4.4	30.42	56.5	0.0	13.03	-40.0	0	15.4	44.3	29.3	0	1737	0	0	0	42.3	34.4	0.0
2017 12/12 19:30	48.4	18.0	294.2	4.2	30.42	56.5	0.0	13.00	-40.0	0	15.4	44.3	28.8	0	1737	0	0	0	42.0	34.2	0.0
2017 12/12 19:45	48.5	18.0	297.8	4.0	30.43	56.5	0.0	13.00	-40.0	0	15.2	45.2	27.9	0	1737	0	0	0	41.4	34.1	0.0
2017 12/12 20:00	48.2	18.3	317.1	4.8	30.42	56.5	0.0	13.03	-39.9	0	15.3	45.2	26.3	0	1737	0	0	0	40.8	33.9	0.0
2017 12/12 20:15	48.5	16.4	273.9	3.9	30.42	56.5	0.0	13.00	-40.0	0	15.2	45.2	27.5	0	1737	0	0	0	40.4	33.7	0.0
2017 12/12 20:30	48.7	16.4	284.3	3.9	30.41	56.5	0.0	13.00	-40.0	0	15.4	44.3	26.4	0	1737	0	0	0	40.0	33.6	0.0
2017 12/12 20:45	48.9	15.7	286.6	4.5	30.41	56.5	0.0	13.00	-40.0	0	15.3	44.3	26.0	0	1737	0	0	0	39.6	33.4	0.0
2017 12/12 21:00	48.7	16.6	316.7	4.9	30.42	56.5	0.0	13.00	-40.0	0	15.4	42.5	24.6	0	1737	0	0	0	39.2	33.3	0.0
2017 12/12 21:15	48.3	17.6	332.2	2.6	30.41	56.5	0.0	13.00	-40.0	0	15.2	41.6	24.9	0	1737	0	0	0	38.8	33.2	0.0
2017 12/12 21:30	48.7	15.9	283.9	1.2	30.41	56.5	0.0	13.02	-40.0	0	15.5	40.7	25.1	0	1737	0	0	0	38.5	33.1	0.0
2017 12/12 21:45	49.3	15.9	232.6	4.4	30.41	56.3	0.0	13.02	-40.0	0	15.5	39.8	24.9	0	1737	0	0	0	38.1	33.0	0.0
2017 12/12 22:00	49.3	16.1	217.6	5.3	30.41	56.3	0.0	13.01	-40.0	0	15.6	38.9	24.2	0	1737	0	0	0	37.9	32.7	0.0
2017 12/12 22:15	49.3	15.9	227.1	6.6	30.41	56.3	0.0	13.01	-39.9	0	15.3	38.9	22.7	0	1737	0	0	0	37.7	32.6	0.0
2017 12/12 22:30	49.0	15.5	246.3	5.1	30.41	56.2	0.0	13.01	-40.0	0	15.2	39.8	23.3	0	1737	0	0	0	37.5	32.6	0.0
2017 12/12 22:45	48.8	15.4	294.6	6.0	30.42	56.1	0.0	13.01	-40.0	0	15.6	38.9	22.8	0	1737	0	0	0	37.2	32.5	0.0
2017 12/12 23:00	48.4	15.8	298.6	5.9	30.42	56.1	0.0	13.02	-40.0	0	15.7	39.8	22.3	0	1737	0	0	0	37.0	32.4	0.0
2017 12/12 23:15	48.5	15.5	295.5	4.1	30.41	56.0	0.0	13.01	-40.0	0	15.6	40.7	22.8	0	1737	0	0	0	36.9	32.3	0.0
2017 12/12 23:30	48.7	15.7	280.7	5.2	30.41	55.9	0.0	13.03	-40.0	0	15.7	39.8	22.7	0	1737	0	0	0	36.6	32.3	0.0
2017 12/12 23:45	49.0	16.1	242.3	4.7	30.40	55.9	0.0	12.99	-40.0	0	15.6	39.8	22.7	0	1737	0	0	0	36.2	32.1	0.0
2017 12/13 00:00	48.9	16.1	239.3	6.2	30.40	55.9	0.0	13.03	-40.0	0	15.5	39.8	21.7	0	1737	0	0	0	36.0	32.1	0.0
2017 12/13 00:15	49.0	16.4	231.9	7.5	30.39	55.8	0.0	13.01	-40.0	0	15.7	39.8	22.6	0	1737	0	0	0	35.8	32.0	0.0
2017 12/13 00:30	48.8	16.4	224.8	7.2	30.38	55.6	0.0	13.01	-39.8	0	15.4	40.7	22.4	0	1737	0	0	0	35.5	31.8	0.0
2017 12/13 00:45	48.9	15.6	227.8	7.1	30.38	55.6	0.0	13.00	-40.0	0	15.7	39.8	22.5	0	1737	0	0	0	35.4	31.7	0.0
2017 12/13 01:00	48.8	15.3	264.5	7.8	30.38	55.4	0.0	13.03	-40.0	0	15.8	40.7	22.6	0	1737	0	0	0	35.3	31.7	0.0
2017 12/13 01:15	48.3	15.3	264.7	7.2	30.38	55.4	0.0	13.02	-40.0	0	15.3	44.3	23.1	0	1737	0	0	0	35.1	31.6	0.0
2017 12/13 01:30	48.2	15.9	278.1	9.8	30.38	55.4	0.0	13.01	-40.0	0	15.4	45.2	23.0	0	1737	0	0	0	35.0	31.6	0.0
2017 12/13 01:45	47.0	17.5	274.2	7.1	30.38	55.2	0.0	13.03	-40.0	0	15.4	45.2	23.1	0	1737	0	0	0	35.0	31.5	0.0
2017 12/13 02:00	47.5	17.0	277.5	8.2	30.37	55.2	0.0	13.01	-39.9	0	15.4	44.3	23.2	0	1737	0	0	0	34.9	31.5	0.0
2017 12/13 02:15	47.1	18.7	298.3	11.3	30.37	55.2	0.0	13.02	-40.0	0	15.2	44.3	23.2	0	1737	0	0	0	34.7	31.5	0.0
2017 12/13 02:30	46.2	20.1	299.3	15.7	30.38	55.1	0.0	13.02	-40.0	0	15.3	43.4	23.2	0	1737	0	0	0	34.5	31.4	0.0
2017 12/13 02:45	46.1	17.1	310.9	15.2	30.38	55.0	0.0	13.00	-40.0	0	15.6	43.4	22.8	0	1737	0	0	0	34.4	31.4	0.0
2017 12/13 03:00	46.1	16.8	304.2	13.5	30.38	55.0	0.0	13.02	-39.9	0	15.6	43.4	22.1	0	1737	0	0	0	34.3	31.3	0.0
2017 12/13 03:15	46.4	15.4	295.1	12.7	30.37	55.0	0.0	13.00	-40.0	0	15.6	43.4	22.4	0	1737	0	0	0	34.1	31.3	0.0
2017 12/13 03:30	46.2	13.7	297.3	12.9	30.37	55.0	0.0	12.99	-40.0	0	15.4	43.4	21.8	0	1737	0	0	0	34.0	31.2	0.0
2017 12/13 03:45	46.1	13.7	311.3	16.5	30.37	55.0	0.0	13.01	-40.0	0	15.5	43.4	22.2	0	1737	0	0	0	33.9	31.2	0.0
2017 12/13 04:00	45.5	15.1	317.5	14.4	30.37	55.0	0.0	13.00	-40.0	0	15.2	43.4	21.5	0	1737	0	0	0	33.6	31.1	0.0
2017 12/13 04:15	45.5	14.5	315.1	15.8	30.37	54.9	0.0	13.00	-40.0	0	15.6	42.5	21.5	0	1737	0	0	0	33.5	31.1	0.0
2017 12/13 04:30	45.5	13.4	320.5	11.4	30.37	54.8	0.0	13.00	-40.0	0	15.5	42.5	21.6	0	1737	0	0	0	33.5	31.1	0.0
2017 12/13 04:45	45.4	13.2	324.8	13.4	30.36	54.8	0.0	13.03	-40.0	0	15.7	42.5	22.3	0	1737	0	0	0	33.3	30.9	0.0
2017 12/13 05:00	45.9	14.1	350.1	10.7	30.36	54.8	0.0	13.01	-40.0	0	15.1	44.3	22.6	0	1737	0	0	0	33.3	30.8	0.0
2017 12/13 05:15	46.2	17.4	337.5	11.5	30.36	54.8	0.0	13.02	-40.0	0	15.3	44.3	21.7	0	1737	0	0	0	33.1	30.8	0.0
2017 12/13 05:30	46.2	36.9	343.3	5.1	30.35	54.6	0.0	13.03	-40.0	0	15.0	44.3	23.4	0	1737	0	0	0	33.0	30.7	0.0
2017 12/13 05:45	45.9	65.8	315.1	3.9	30.35	54.6	0.0	13.01	-40.0	0	15.2	44.3	22.5	0	1737	0	0	0	32.9	30.7	0.0
2017 12/13 06:00	46.1	78.7	281.1	6.0	30.35	54.6	0.0	13.00	-40.1	0	15.3	43.4	23.0	0	1737	0	0	0	32.9	30.7	0.0
2017 12/13 06:15	46.2	78.5	269.3	8.1	30.35	54.5	0.0	13.02	-40.0	0	15.6	43.4	22.8	0	1737	0	0	0	32.9	30.6	0.0
2017 12/13 06:30	45.6	77.0	256.6	8.1	30.34	54.4	0.0	13.01	-40.0	0	15.4	43.4	21.7	0	1737	0	0	0	32.6	30.6	0.0
2017 12/13 06:45	45.6	79.2	227.6	10.1	30.33	54.4	0.0	13.02	-40.0	0	15.7	42.5	21.4	0	1737	0	0	0	32.5	30.5	0.0
2017 12/13 07:00	45.5	80.7	232.7	10.7	30.33	54.4	3.4	13.01	-39.9	0	15.6	41.6	21.7	0	1737	0	0	0	32.5	30.5	0.0
2017 12/13 07:15	45.4	79.5	206.2	10.2	30.33	54.4	37.3	13.01	-39.9	0	15.2	42.5	21.0	0	1737	0	0	0	32.4	30.4	0.0
2017 12/13 07:30	45.7	80.4	183.2	4.0	30.34	54.3	274.1	13.03	-40.0	0	15.9	39.8	22.4	0	1737	0	0	0	32.3	30.4	0.0
2017 12/13 07:45	43.9	48.6	59.4	6.9	30.35	54.1	544.5	13.02	-40.0	0	15.4	38.9	21.3	0	1737	0	0	0	32.2	30.3	0.0
2017 12/13 08:00	43.5	31.3	53.3	8.7	30.35	54.1	658.9	13.02	-39.9	0	15.3	33.5	25.1	0	1737	0	0	0	32.0	30.3	0.0
2017 12/13 08:15	45.1	73.2	345.0	0.1	30.35	54.1	712.0	13.01	-40.0	0	15.2	38.0	24.1	0	1737	0	0	0	32.1	30.2	0.0
2017 12/13 08:30	46.0	78.4	255.2	2.8	30.36	54.1	778.0	12.99	-40.0	0	15.3	38.9	23.7	0	1737	0	0	0	32.0	30.3	0.0
2017 12/13 08:45	46.1	74.9	258.5	4.1	30.36	54.0	801.0	13.00	-40.0	0	15.3	41.6	25.5	0	1737	0	0	0	31.8	30.2	0.0
2017 12/13 09:00	46.8	69.5	259.8	1.3	30.35	53.9	816.0	12.99	-40.0	0	14.8	45.2	27.3	0	1737	0	0	0	31.7	30.2	0.0
2017 12/13 09:15	47.0	70.8	285.8	2.2	30.35	53.9	828.0	13.00	-40.0	0	14.8	46.1	27.8	0	1737	0	0	0	31.6	30.2	0.0
2017 12/13 09:30	46.5	70.2	301.6	5.4	30.35	53.9	825.0	13.03	-40.0	0	15.2	45.2	28.2	0	1737	0	0	0	32.4	30.4	0.0
2017 12/13 09:45	46.8	69.0	307.4	3.9	30.36	53.9	839.0	13.01	-40.0	0	15.4	44.3	28.2	0	1737	0	0	0	33.4	30.9	0.0
2017 12/13 10:00	47.0	68.9	275.9	1.9	30.36	54.0	841.0	13.02	-39.9	0	15.2	45.2	28.6	0	1737	0	0	0	34.8	31.7	0.0
2017 12/13 10:15	47.9	66.6	298.5	0.0	30.36	54.1	852.0	13.02	-40.0	0	15.4	46.1	30.3	0	1737	0	0	0	36.6	32.6	0.0
2017 12/13 10:30	50.0	39.8	52.8	0.6	30.36	54.1	854.0	12.99	-40.0	0	15.2	46.1	31.2	0	1737	0	0	0	38.0	33.2	0.0
2017 12/13 10:45	43.0	26.9	58.5	12.0	30.37	54.2	860.0	13.01	-40.0	0	15.6	45.2	36.6	0	1737	0	0	0	40.0	34.3	0.0
2017 12/13 11:00	42.0	32.0	69.7	13.7	30.36	54.4	862.0	13.00	-40.0	0	15.4	44.3	42.5	0	1737	0	0	0	41.9	35.8	0.0
2017 12/13 11:15	41.2	27.2	68.2	13.8	30.36	54.5	863.0	12.99	-40.0	0	15.6	42.5	42.2	0	1737	0	0	0	43.4	37.4	0.0
2017 12/13 11:30	41.0	30.5	71.7	16.9	30.35	54.6	864.0	13.03	-40.0	0	15.2	40.7	41.2	0	1737	0	0	0	44.3	38.4	0.0
2017 12/13 11:45	40.2	38.7	68.9	20.2	30.35	54.8	864.0	13.01	-39.9	0	15.4	38.9	39.7	0	1737	0	0	0	45.1	39.4	0.0
2017 12/13 12:00	39.3	33.3	66.8	19.6	30.35	55.0	864.0	13.01	-39.9	0	15.5	36.2	37.5	0	1737	0	0	0	45.9	40.2	0.0
2017 12/13 12:15	38.8	36.3	63.8	19.8	30.34	55.0	863.0	13.02	-39.8	0	15.4	32.6	35.3	0	1737	0	0	0	46.4	40.7	0.0
2017 12/13 12:30	37.2	37.2	68.8	24.7	30.34	55.2	862.0	12.99	-40.0	0	14.5	35.3	34.5	0	1737	0	0	0	46.4	41.0	0.0
2017 12/13 12:45	34.8	44.0	72.2	24.6	30.33	55.4	853.0	13.01	-40.0	0	14.3	34.4	33.6	0	1737	0	0	0	46.5	41.1	0.0
2017 12/13 13:00	32.2	54.6	66.5	25.9	30.33	55.4	859.0	12.99	-40.0	0	14.2	33.5	32.8	0	1737	0	0	0	46.0	40.7	0.0
2017 12/13 13:15	30.4	61.6	69.7	27.2	30.33	55.6	856.0	13.01	-40.0	0	15.2	29.0	32.6	0	1737	0	0	0	45.9	40.5	0.0
2017 12/13 13:30	29.6	59.6	67.4	27.1	30.33	55.6	862.0	13.01	-40.0	0	15.0	29.0	32.4	0	1737	0	0	0	45.9	40.3	0.0
2017 12/13 13:45	29.5	62.4	67.1	26.2	30.33	55.7	860.0	12.99	-40.0	0	15.2	27.2	32.0	0	1737	0	0	0	45.9	40.3	0.0
2017 12/13 14:00	28.3	62.8	79.0	29.8	30.34	55.8	857.0	13.01	-40.0	0	15.3	27.2	30.7	0	1737	0	0	0	45.6	39.9	0.0
2017 12/13 14:15	29.0	56.4	73.8	28.7	30.33	55.8	844.0	13.01	-40.2	0	14.9	29.0	30.4	0	1737	0	0	0	45.3	39.5	0.0
2017 12/13 14:30	28.8	59.7	78.4	28.2	30.33	55.9	852.0	13.00	-40.0	0	14.8	29.0	30.6	0	1737	0	0	0	45.1	39.4	0.0
2017 12/13 14:45	30.0	53.1	82.6	31.6	30.34	55.6	847.0	13.02	-40.0	0	14.8	29.9	30.8	0	1737	0	0	0	44.8	39.0	0.0
2017 12/13 15:00	31.1	48.6	83.1	32.5	30.34	55.6	833.0	12.99	-39.9	0	15.4	28.1	31.2	0	1737	0	0	0	44.4	38.5	0.0
2017 12/13 15:15	31.6	46.8	80.7	28.1	30.34	55.6	817.0	12.99	-40.0	0	15.2	28.1	31.5	0	1737	0	0	0	44.0	37.9	0.0
2017 12/13 15:30	32.5	47.2	91.3	32.1	30.34	55.4	796.0	13.01	-40.0	0	15.3	27.2	31.2	0	1737	0	0	0	43.5	37.5	0.0
2017 12/13 15:45	32.1	51.9	88.3	34.0	30.34	55.4	768.0	13.00	-39.9	0	15.2	27.2	30.8	0	1737	0	0	0	42.9	37.0	0.0
2017 12/13 16:00	32.5	56.7	83.5	35.3	30.35	55.2	710.0	13.01	-40.0	0	15.3	26.3	30.4	0	1737	0	0	0	42.2	36.5	0.0
2017 12/13 16:15	32.3	53.8	85.0	36.4	30.34	55.0	600.5	12.99	-40.1	0	15.3	26.3	29.9	0	1737	0	0	0	41.6	36.0	0.0
2017 12/13 16:30	32.3	55.1	84.4	34.1	30.34	54.8	382.4	12.99	-39.8	0	15.4	26.3	29.8	0	1737	0	0	0	41.2	35.7	0.0
2017 12/13 16:45	31.8	62.0	85.5	36.1	30.34	54.6	169.6	12.99	-39.9	0	15.4	25.4	29.5	0	1737	0	0	0	40.5	35.2	0.0
2017 12/13 17:00	31.3	73.3	79.2	36.2	30.34	54.3	23.8	13.00	-40.0	0	15.3	25.4	28.9	0	1737	0	0	0	39.9	35.0	0.0
2017 12/13 17:15	31.6	65.7	84.4	35.4	30.34	53.9	1.7	13.01	-40.0	0	15.4	25.4	29.0	0	1737	0	0	0	39.4	34.7	0.0
2017 12/13 17:30	31.0	54.5	77.8	34.4	30.35	53.7	0.0	12.99	-40.2	0	15.4	25.4	29.0	0	1737	0	0	0	38.9	34.3	0.0
2017 12/13 17:45	30.1	51.2	83.8	35.9	30.33	53.3	0.0	13.01	-39.9	0	15.3	25.4	28.4	0	1737	0	0	0	38.5	34.1	0.0
2017 12/13 18:00	29.6	53.3	83.5	36.8	30.34	53.0	0.0	12.98	-40.0	0	15.5	24.5	28.6	0	1737	0	0	0	38.0	33.9	0.0
2017 12/13 18:15	29.6	57.8	74.0	33.6	30.33	52.6	0.0	13.00	-39.9	0	15.4	24.5	28.2	0	1737	0	0	0	37.6	33.5	0.0
2017 12/13 18:30	30.0	52.5	78.4	38.9	30.33	52.2	0.0	13.00	-40.0	0	15.5	24.5	28.1	0	1737	0	0	0	37.2	33.3	0.0
2017 12/13 18:45	30.0	49.0	81.5	36.0	30.33	52.0	0.0	13.00	-40.0	0	15.3	25.4	28.7	0	1737	0	0	0	36.8	33.1	0.0
2017 12/13 19:00	29.9	49.6	84.4	36.2	30.32	51.6	0.0	13.00	-39.9	0	15.4	25.4	29.1	0	1737	0	0	0	36.5	32.9	0.0
2017 12/13 19:15	29.3	52.0	77.8	34.8	30.32	51.1	0.0	13.00	-40.0	0	15.5	25.4	29.3	0	1737	0	0	0	36.2	32.6	0.0
2017 12/13 19:30	29.9	49.9	79.7	37.2	30.31	50.7	-0.3	12.99	-40.0	0	15.4	25.4	29.1	0	1737	0	0	0	35.9	32.5	0.0
2017 12/13 19:45	30.6	45.9	79.7	40.5	30.30	50.4	-0.3	13.01	-40.1	0	15.4	25.4	29.1	0	1737	0	0	0	35.7	32.3	0.0
2017 12/13 20:00	31.0	46.2	76.4	41.5	30.30	50.0	-0.3	12.98	-40.0	0	15.5	25.4	29.3	0	1737	0	0	0	35.3	32.2	0.0
2017 12/13 20:15	31.8	44.8	70.4	40.8	30.28	49.6	-0.3	12.99	-39.9	0	15.4	26.3	30.2	0	1737	0	0	0	35.2	32.1	0.0
2017 12/13 20:30	31.9	46.2	76.9	39.9	30.29	49.1	0.0	13.00	-39.9	0	15.3	27.2	30.4	0	1737	0	0	0	35.0	32.0	0.0
2017 12/13 20:45	32.2	50.9	82.3	40.4	30.28	48.8	0.0	12.99	-40.0	0	15.4	27.2	30.7	0	1737	0	0	0	34.8	31.8	0.0
2017 12/13 21:00	32.3	55.9	82.3	38.1	30.28	48.4	-0.3	12.99	-40.0	0	15.4	26.3	30.2	0	1737	0	0	0	34.7	31.7	0.0
2017 12/13 21:15	32.3	64.5	77.8	38.1	30.27	48.0	-0.3	12.99	-40.1	0	15.3	27.2	30.7	0	1737	0	0	0	34.4	31.6	0.0
2017 12/13 21:30	31.9	65.7	79.7	35.5	30.27	47.6	0.0	12.99	-40.0	0	15.5	26.3	30.5	0	1737	0	0	0	34.3	31.6	0.0
2017 12/13 21:45	32.2	66.6	84.6	37.8	30.27	47.4	0.0	13.01	-40.1	0	15.4	26.3	29.5	0	1737	0	0	0	34.1	31.5	0.0
2017 12/13 22:00	31.9	66.6	76.6	36.0	30.26	47.1	0.0	13.01	-39.9	0	15.4	27.2	29.9	0	1737	0	0	0	33.9	31.5	0.0
2017 12/13 22:15	32.7	65.2	97.0	34.2	30.26	46.8	0.0	13.00	-40.0	0	15.4	27.2	30.5	0	1737	0	0	0	33.7	31.4	0.0
2017 12/13 22:30	32.7	63.3	88.2	37.1	30.26	46.5	0.0	13.02	-39.9	0	15.6	27.2	30.6	0	1737	0	0	0	33.5	31.3	0.0
2017 12/13 22:45	31.5	65.8	78.4	37.8	30.27	46.3	0.0	12.98	-40.0	0	15.2	27.2	30.4	0	1737	0	0	0	33.3	31.2	0.0
2017 12/13 23:00	31.6	63.5	90.1	34.4	30.26	46.0	0.0	12.99	-40.0	0	15.2	27.2	30.2	0	1737	0	0	0	33.2	31.2	0.0
2017 12/13 23:15	32.4	61.3	75.5	36.4	30.25	45.8	0.0	13.00	-40.0	0	15.2	27.2	29.9	0	1737	0	0	0	33.1	31.1	0.0
2017 12/13 23:30	31.6	57.5	90.3	33.9	30.25	45.7	0.0	12.98	-40.1	0	15.3	26.3	29.4	0	1737	0	0	0	33.0	31.1	0.0
2017 12/13 23:45	29.8	63.9	84.5	37.2	30.24	45.5	0.0	12.98	-39.8	0	15.1	26.3	29.6	0	1737	0	0	0	32.9	30.9	0.0
2017 12/14 00:00	28.3	63.9	85.4	36.2	30.23	45.3	0.0	13.00	-39.9	0	15.4	25.4	29.1	0	1737	0	0	0	32.7	30.8	0.0
2017 12/14 00:15	28.9	64.0	83.2	36.1	30.24	45.1	-0.3	12.98	-40.0	0	15.4	25.4	29.4	0	1737	0	0	0	32.6	30.8	0.0
2017 12/14 00:30	29.6	59.0	85.3	35.1	30.23	44.8	0.0	12.99	-39.8	0	15.3	25.4	28.8	0	1737	0	0	0	32.5	30.7	0.0
2017 12/14 00:45	30.1	62.3	79.4	34.7	30.23	44.7	0.0	13.00	-40.0	0	15.3	25.4	28.8	0	1737	0	0	0	32.4	30.7	0.0
2017 12/14 01:00	30.4	60.3	86.1	34.4	30.22	44.5	-0.3	12.97	-40.0	0	15.4	25.4	28.9	0	1737	0	0	0	32.3	30.6	0.0
2017 12/14 01:15	31.1	63.6	88.8	34.1	30.23	44.3	-0.3	12.98	-39.9	0	15.6	24.5	28.8	0	1737	0	0	0	32.2	30.6	0.0
2017 12/14 01:30	31.4	61.6	79.0	32.0	30.22	44.1	-0.3	12.98	-40.1	0	15.4	24.5	28.5	0	1737	0	0	0	32.1	30.5	0.0
2017 12/14 01:45	31.8	61.1	96.2	30.9	30.22	44.0	0.0	13.00	-39.9	0	15.4	25.4	28.6	0	1737	0	0	0	32.0	30.5	0.0
2017 12/14 02:00	31.5	64.5	105.3	31.2	30.20	43.9	0.0	12.98	-40.1	0	15.5	24.5	28.7	0	1737	0	0	0	31.8	30.4	0.0
2017 12/14 02:15	30.5	65.8	90.0	29.9	30.21	43.8	-0.3	12.99	-39.9	0	15.3	25.4	28.5	0	1737	0	0	0	31.7	30.3	0.0
2017 12/14 02:30	30.7	63.7	93.5	29.3	30.21	43.7	0.0	13.01	-40.0	0	15.3	25.4	28.8	0	1737	0	0	0	31.5	30.3	0.0
2017 12/14 02:45	31.1	66.2	90.3	25.2	30.23	43.7	0.0	13.00	-39.9	0	15.3	25.4	28.7	0	1737	0	0	0	31.4	30.2	0.0
2017 12/14 03:00	31.5	64.9	97.4	23.2	30.23	43.7	0.0	12.99	-39.9	0	15.4	25.4	28.8	0	1737	0	0	0	31.2	30.0	0.0
2017 12/14 03:15	31.2	63.3	84.3	22.7	30.22	43.7	-0.3	12.98	-40.1	0	15.4	25.4	28.5	0	1737	0	0	0	31.2	29.9	0.0
2017 12/14 03:30	31.2	65.8	94.2	20.7	30.22	43.7	0.0	13.00	-40.1	0	15.3	25.4	28.8	0	1737	0	0	0	31.2	29.9	0.0
2017 12/14 03:45	31.7	65.8	92.2	22.7	30.23	43.8	0.0	13.00	-40.0	0	15.4	25.4	29.0	0	1737	0	0	0	30.9	29.8	0.0
2017 12/14 04:00	30.6	69.4	96.0	14.4	30.23	43.8	0.0	12.98	-40.0	0	15.4	26.3	29.4	0	1737	0	0	0	30.8	29.8	0.0
2017 12/14 04:15	31.1	65.6	131.7	17.1	30.23	43.9	0.0	12.99	-40.0	0	15.5	27.2	30.4	0	1737	0	0	0	30.7	29.7	0.0
2017 12/14 04:30	30.9	65.2	70.7	20.9	30.24	43.9	0.0	12.98	-39.9	0	15.4	28.1	30.5	0	1737	0	0	0	30.5	29.6	0.0
2017 12/14 04:45	31.2	63.0	61.7	20.7	30.24	44.0	0.0	12.98	-40.0	0	15.4	28.1	31.5	0	1737	0	0	0	30.5	29.5	0.0
2017 12/14 05:00	31.2	63.9	53.4	15.4	30.24	44.0	-0.3	13.00	-40.0	0	15.4	29.0	32.1	0	1737	0	0	0	30.3	29.5	0.0
2017 12/14 05:15	32.1	62.2	53.0	21.2	30.24	44.1	0.0	12.98	-40.0	0	15.6	29.0	32.4	0	1737	0	0	0	30.3	29.4	0.0
2017 12/14 05:30	32.1	60.6	69.4	23.8	30.24	44.2	-0.3	13.01	-40.0	0	15.5	29.9	32.0	0	1737	0	0	0	30.2	29.4	0.0
2017 12/14 05:45	32.1	61.8	55.5	25.9	30.24	44.3	0.0	12.99	-40.0	0	15.5	28.1	32.0	0	1737	0	0	0	30.0	29.4	0.0
2017 12/14 06:00	32.1	62.9	68.9	29.6	30.24	44.3	0.0	13.00	-39.9	0	15.4	28.1	31.2	0	1737	0	0	0	29.9	29.2	0.0
2017 12/14 06:15	31.8	60.8	63.9	30.7	30.24	44.3	0.0	13.00	-39.9	0	15.0	27.2	30.5	0	1737	0	0	0	29.9	29.1	0.0
2017 12/14 06:30	32.0	59.0	66.3	30.4	30.24	44.3	0.0	12.98	-40.0	0	15.3	26.3	29.8	0	1737	0	0	0	29.8	29.1	0.0
2017 12/14 06:45	30.7	59.5	51.7	26.9	30.24	44.3	0.3	12.98	-39.9	0	15.4	24.5	28.5	0	1737	0	0	0	29.7	29.1	0.0
2017 12/14 07:00	28.9	62.4	58.4	25.3	30.24	44.2	3.4	12.99	-40.0	0	15.4	24.5	28.4	0	1737	0	0	0	29.6	29.0	0.0
2017 12/14 07:15	28.3	61.9	70.2	21.1	30.24	44.2	40.0	12.98	-39.9	0	15.3	24.5	28.5	0	1737	0	0	0	29.6	29.0	0.0
2017 12/14 07:30	27.3	63.0	69.7	19.9	30.24	44.3	230.8	13.00	-40.0	0	15.5	24.5	28.8	0	1737	0	0	0	29.4	28.9	0.0
2017 12/14 07:45	27.2	63.9	50.5	17.3	30.24	44.3	495.8	13.00	-40.0	0	15.4	24.5	28.7	0	1737	0	0	0	29.2	28.9	0.0
2017 12/14 08:00	27.8	62.6	63.9	20.1	30.25	44.4	675.3	13.00	-39.9	0	15.4	25.4	29.0	0	1737	0	0	0	29.2	28.8	0.0
2017 12/14 08:15	28.1	60.4	48.5	19.8	30.25	44.4	720.0	12.98	-39.9	0	15.3	26.3	29.9	0	1737	0	0	0	29.1	28.8	0.0
2017 12/14 08:30	32.0	53.4	63.6	20.5	30.25	44.4	732.0	13.00	-40.1	0	15.3	26.3	29.9	0	1737	0	0	0	29.1	28.7	0.0
2017 12/14 08:45	28.5	61.7	69.8	22.0	30.25	44.5	780.0	13.00	-40.0	0	15.3	26.3	29.9	0	1737	0	0	0	28.9	28.7	0.0
2017 12/14 09:00	28.4	62.6	64.4	20.2	30.25	44.5	806.0	12.98	-40.0	0	15.0	27.2	30.0	0	1737	0	0	0	28.9	28.7	0.0
2017 12/14 09:15	29.4	59.2	70.1	17.1	30.24	44.5	830.0	13.00	-40.0	0	15.0	29.0	31.1	0	1737	0	0	0	28.8	28.7	0.0
2017 12/14 09:30	30.0	58.8	74.0	18.8	30.24	44.5	818.0	13.02	-39.9	0	15.3	27.2	31.1	0	1737	0	0	0	28.8	28.8	0.0
2017 12/14 09:45	30.2	58.2	79.6	16.7	30.24	44.6	818.0	13.00	-40.0	0	15.2	28.1	31.6	0	1737	0	0	0	29.5	29.1	0.0
2017 12/14 10:00	31.5	55.9	48.7	14.0	30.24	44.7	844.0	12.98	-40.0	0	15.4	29.0	33.0	0	1737	0	0	0	30.3	29.8	0.0
2017 12/14 10:15	34.6	49.9	61.6	14.9	30.24	44.8	840.0	13.01	-39.9	0	15.3	30.8	33.5	0	1737	0	0	0	31.1	30.4	0.0
2017 12/14 10:30	33.2	51.7	54.8	15.9	30.24	44.9	850.0	13.01	-39.9	0	15.4	32.6	35.1	0	1737	0	0	0	32.2	31.1	0.0
2017 12/14 10:45	33.9	49.7	58.9	14.7	30.24	45.0	859.0	12.99	-40.0	0	15.5	33.5	35.9	0	1737	0	0	0	33.5	32.0	0.0
2017 12/14 11:00	43.4	31.8	52.6	2.7	30.24	45.3	858.0	12.98	-40.0	0	15.5	35.3	37.1	0	1737	0	0	0	34.9	33.0	0.0
2017 12/14 11:15	45.1	27.4	159.2	3.8	30.24	45.4	845.0	13.00	-40.0	0	15.3	36.2	37.0	0	1737	0	0	0	35.9	34.2	0.0
2017 12/14 11:30	49.7	24.5	197.3	7.1	30.24	45.5	856.0	12.98	-39.9	0	15.4	36.2	37.3	0	1737	0	0	0	36.5	34.8	0.0
2017 12/14 11:45	51.3	23.2	197.6	8.7	30.23	45.7	854.0	13.01	-40.1	0	15.2	37.1	37.8	0	1737	0	0	0	37.2	35.2	0.0
2017 12/14 12:00	50.5	24.5	199.6	8.3	30.23	45.9	856.0	13.00	-40.0	0	15.4	33.5	36.9	0	1737	0	0	0	37.8	35.7	0.0
2017 12/14 12:15	50.0	23.8	185.0	8.0	30.23	46.1	837.0	13.02	-40.1	0	15.1	34.4	37.5	0	1737	0	0	0	38.4	35.9	0.0
2017 12/14 12:30	50.8	23.2	183.2	7.2	30.23	46.2	860.0	13.01	-40.2	0	14.6	38.9	37.9	0	1737	0	0	0	38.7	36.1	0.0
2017 12/14 12:45	51.4	23.1	185.1	7.7	30.22	46.4	860.0	13.02	-39.9	0	14.4	41.6	38.9	0	1737	0	0	0	39.5	36.5	0.0
2017 12/14 13:00	51.4	20.7	209.1	11.2	30.23	46.6	835.0	13.01	-40.0	0	14.2	42.5	40.3	0	1737	0	0	0	40.4	37.0	0.0
2017 12/14 13:15	51.3	21.8	238.8	12.2	30.23	46.7	857.0	13.02	-40.0	0	14.8	41.6	41.4	0	1737	0	0	0	41.1	37.6	0.0
2017 12/14 13:30	51.3	22.4	222.8	9.9	30.23	47.0	861.0	13.00	-40.0	0	14.9	43.4	41.3	0	1737	0	0	0	41.7	37.9	0.0
2017 12/14 13:45	50.8	22.6	219.5	10.4	30.23	47.2	850.0	13.01	-40.0	0	14.4	43.4	40.9	0	1737	0	0	0	42.5	38.6	0.0
2017 12/14 14:00	50.5	23.3	203.4	6.4	30.22	47.4	835.0	13.02	-39.9	0	14.8	38.9	40.2	0	1737	0	0	0	42.9	38.8	0.0
2017 12/14 14:15	51.0	22.5	200.5	6.6	30.22	47.6	835.0	13.01	-39.9	0	14.3	40.7	39.0	0	1737	0	0	0	43.2	38.6	0.0
2017 12/14 14:30	50.6	22.3	240.6	9.5	30.23	47.9	810.0	13.01	-40.0	0	14.7	38.9	38.9	0	1737	0	0	0	43.2	38.6	0.0
2017 12/14 14:45	50.1	22.3	235.2	12.1	30.24	48.2	795.0	13.00	-40.0	0	14.9	39.8	39.3	0	1737	0	0	0	43.2	38.4	0.0
2017 12/14 15:00	50.3	22.1	226.4	12.9	30.24	48.4	784.0	12.98	-40.0	0	14.2	40.7	38.1	0	1737	0	0	0	43.1	38.0	0.0
2017 12/14 15:15	50.3	22.5	229.9	11.2	30.24	48.6	777.0	13.02	-40.0	0	14.4	36.2	37.0	0	1737	0	0	0	42.9	37.7	0.0
2017 12/14 15:30	50.1	23.2	221.7	10.0	30.24	48.9	797.0	13.02	-40.0	0	15.0	33.5	36.4	0	1737	0	0	0	42.6	37.5	0.0
2017 12/14 15:45	50.0	22.9	218.6	9.3	30.24	49.1	722.0	13.02	-40.1	0	15.1	31.7	35.4	0	1737	0	0	0	42.3	37.1	0.0
2017 12/14 16:00	49.4	24.1	234.1	9.1	30.25	49.3	604.9	12.99	-40.1	0	15.4	31.7	33.7	0	1737	0	0	0	41.9	36.8	0.0
2017 12/14 16:15	49.8	23.5	255.4	8.8	30.25	49.5	440.7	13.01	-40.0	0	15.4	32.6	30.8	0	1737	0	0	0	41.1	36.2	0.0
2017 12/14 16:30	49.5	23.7	229.7	6.5	30.25	49.7	233.8	13.00	-40.0	0	15.4	32.6	29.8	0	1737	0	0	0	40.6	36.0	0.0
2017 12/14 16:45	49.6	24.0	249.9	8.9	30.26	50.0	73.3	12.99	-40.0	0	15.4	33.5	28.5	0	1737	0	0	0	39.9	35.5	0.0
2017 12/14 17:00	49.3	25.1	249.0	7.7	30.26	50.1	6.1	13.01	-39.9	0	15.4	35.3	27.9	0	1737	0	0	0	39.4	35.2	0.0
2017 12/14 17:15	49.4	25.3	248.1	8.3	30.26	50.3	0.7	13.01	-40.0	0	15.6	36.2	26.7	0	1737	0	0	0	39.0	34.9	0.0
2017 12/14 17:30	49.0	26.6	263.1	7.1	30.27	50.5	0.0	13.01	-40.0	0	15.7	35.3	27.1	0	1737	0	0	0	38.5	34.7	0.0
2017 12/14 17:45	49.4	25.4	245.2	7.4	30.27	50.7	0.0	13.02	-40.0	0	15.3	35.3	26.2	0	1737	0	0	0	37.9	34.3	0.0
2017 12/14 18:00	50.4	22.9	263.2	9.1	30.27	50.9	0.0	13.00	-40.0	0	15.3	33.5	26.8	0	1737	0	0	0	37.5	34.0	0.0
2017 12/14 18:15	50.1	23.8	233.0	6.0	30.26	50.9	0.0	13.00	-40.0	0	15.5	34.4	25.9	0	1737	0	0	0	37.1	33.7	0.0
2017 12/14 18:30	50.1	25.6	237.0	5.1	30.26	51.1	0.0	13.00	-40.1	0	15.3	34.4	25.0	0	1737	0	0	0	36.8	33.5	0.0
2017 12/14 18:45	49.4	26.7	229.3	6.6	30.26	51.1	0.0	13.00	-40.0	0	15.2	33.5	24.9	0	1737	0	0	0	36.5	33.3	0.0
2017 12/14 19:00	49.4	25.1	229.7	6.1	30.27	51.4	0.0	13.02	-40.0	0	15.2	33.5	24.9	0	1737	0	0	0	36.2	33.1	0.0
2017 12/14 19:15	49.8	24.4	225.7	8.5	30.27	51.4	0.0	13.00	-40.0	0	15.5	33.5	25.3	0	1737	0	0	0	35.8	32.9	0.0
2017 12/14 19:30	49.9	23.7	211.9	9.1	30.27	51.6	0.0	13.00	-40.0	0	15.7	34.4	24.1	0	1737	0	0	0	35.7	32.7	0.0
2017 12/14 19:45	49.8	23.6	246.3	12.4	30.27	51.6	0.0	13.01	-39.9	0	14.9	45.2	23.7	0	1737	0	0	0	35.3	32.5	0.0
2017 12/14 20:00	50.0	22.3	240.5	15.9	30.27	51.6	0.0	13.01	-40.1	0	14.9	46.1	22.8	0	1737	0	0	0	34.9	32.3	0.0
2017 12/14 20:15	49.9	22.5	244.2	15.8	30.27	51.6	0.0	13.00	-40.0	0	15.0	47.0	22.7	0	1737	0	0	0	34.7	32.2	0.0
2017 12/14 20:30	49.3	24.8	226.1	15.5	30.26	51.6	0.0	13.00	-40.0	0	15.1	47.0	23.3	0	1737	0	0	0	34.4	32.1	0.0
2017 12/14 20:45	49.6	23.0	255.1	17.9	30.27	51.6	0.0	13.02	-40.0	0	15.5	47.0	23.5	0	1737	0	0	0	34.2	32.0	0.0
2017 12/14 21:00	49.3	22.7	243.9	16.9	30.27	51.6	0.0	13.00	-40.0	0	15.3	47.0	23.1	0	1737	0	0	0	34.0	31.7	0.0
2017 12/14 21:15	49.4	24.2	249.1	13.9	30.26	51.6	0.0	13.00	-40.0	0	15.0	47.0	23.2	0	1737	0	0	0	33.7	31.6	0.0
2017 12/14 21:30	49.0	24.2	241.4	13.9	30.26	51.6	0.0	12.99	-40.0	0	15.2	46.1	22.6	0	1737	0	0	0	33.6	31.5	0.0
2017 12/14 21:45	48.4	26.7	243.4	14.8	30.26	51.6	0.0	12.98	-40.0	0	15.1	46.1	22.1	0	1737	0	0	0	33.4	31.5	0.0
2017 12/14 22:00	48.3	27.2	236.6	15.3	30.26	51.6	0.0	13.02	-40.0	0	15.3	46.1	22.1	0	1737	0	0	0	33.3	31.4	0.0
2017 12/14 22:15	48.8	25.2	248.5	16.6	30.27	51.6	0.0	13.00	-40.0	0	15.0	46.1	20.7	0	1737	0	0	0	33.1	31.3	0.0
2017 12/14 22:30	48.7	25.5	217.2	13.7	30.26	51.6	0.0	13.00	-40.0	0	15.1	45.2	20.0	0	1737	0	0	0	33.0	31.2	0.0
2017 12/14 22:45	47.8	27.4	240.1	17.1	30.26	51.6	0.0	12.99	-40.0	0	15.1	46.1	20.0	0	1737	0	0	0	32.9	31.1	0.0
2017 12/14 23:00	48.3	26.3	219.2	12.8	30.25	51.6	0.0	13.00	-40.0	0	15.4	45.2	19.6	0	1737	0	0	0	32.9	31.1	0.0
2017 12/14 23:15	47.6	27.0	217.7	11.8	30.25	51.5	0.0	13.00	-40.0	0	15.0	45.2	19.7	0	1737	0	0	0	32.7	30.9	0.0
2017 12/14 23:30	48.5	24.8	224.0	14.5	30.24	51.4	0.0	13.00	-40.0	0	15.1	47.0	19.8	0	1737	0	0	0	32.6	30.8	0.0
2017 12/14 23:45	48.4	24.5	221.3	14.6	30.24	51.4	0.0	12.99	-40.0	0	15.1	47.0	19.9	0	1737	0	0	0	32.6	30.8	0.0
2017 12/15 00:00	47.5	27.4	225.1	18.7	30.24	51.4	0.0	13.01	-39.9	0	15.1	46.1	20.0	0	1737	0	0	0	32.6	30.7	0.0
2017 12/15 00:15	46.8	28.1	236.5	18.5	30.23	51.2	0.0	12.98	-40.0	0	15.0	44.3	20.3	0	1737	0	0	0	32.6	30.7	0.0
2017 12/15 00:30	46.7	28.4	228.6	19.6	30.23	51.1	0.0	13.00	-40.0	0	15.4	44.3	20.8	0	1737	0	0	0	32.5	30.7	0.0
2017 12/15 00:45	46.4	29.8	224.7	18.6	30.22	51.0	0.0	13.01	-40.0	0	15.2	44.3	21.3	0	1737	0	0	0	32.5	30.7	0.0
2017 12/15 01:00	46.2	29.5	223.1	20.8	30.21	50.9	0.0	13.00	-40.0	0	15.2	44.3	21.0	0	1737	0	0	0	32.5	30.6	0.0
2017 12/15 01:15	45.9	30.4	221.0	22.9	30.21	50.9	0.0	13.00	-40.0	0	15.5	44.3	21.5	0	1737	0	0	0	32.5	30.6	0.0
2017 12/15 01:30	45.5	30.5	224.4	22.8	30.21	50.7	0.0	13.00	-40.0	0	15.1	45.2	22.6	0	1737	0	0	0	32.5	30.6	0.0
2017 12/15 01:45	45.6	30.8	222.5	21.4	30.20	50.7	0.0	12.99	-40.0	0	15.3	44.3	26.1	0	1737	0	0	0	32.6	30.6	0.0
2017 12/15 02:00	45.7	30.5	236.5	23.1	30.20	50.5	0.0	13.00	-40.1	0	15.2	44.3	30.0	0	1737	0	0	0	32.7	30.6	0.0
2017 12/15 02:15	45.7	31.1	226.3	24.0	30.20	50.5	0.0	13.01	-39.9	0	15.0	45.2	38.5	0	1737	0	0	0	33.0	30.6	0.0
2017 12/15 02:30	45.3	31.8	231.3	22.6	30.20	50.3	0.0	13.02	-40.0	0	15.0	44.3	39.6	0	1737	0	0	0	33.1	30.6	0.0
2017 12/15 02:45	44.6	32.6	214.2	21.9	30.20	50.3	0.0	13.00	-40.0	0	15.1	44.3	40.2	0	1737	0	0	0	33.3	30.7	0.0
2017 12/15 03:00	44.4	33.5	238.7	21.3	30.21	50.1	0.0	13.00	-40.1	0	15.2	42.5	41.2	0	1737	0	0	0	33.4	30.7	0.0
2017 12/15 03:15	43.7	35.6	229.3	18.9	30.20	50.1	0.0	13.00	-40.0	0	15.2	42.5	39.6	0	1737	0	0	0	33.6	30.7	0.0
2017 12/15 03:30	43.2	35.8	225.3	19.4	30.19	49.9	0.0	13.01	-40.0	0	15.4	42.5	40.9	0	1737	0	0	0	33.7	30.7	0.0
2017 12/15 03:45	42.7	37.2	219.8	18.1	30.18	49.9	0.0	13.00	-40.0	0	15.0	42.5	41.3	0	1737	0	0	0	33.9	30.7	0.0
2017 12/15 04:00	42.8	37.3	212.0	20.2	30.17	49.8	0.0	13.02	-40.0	0	15.2	41.6	42.0	0	1737	0	0	0	34.0	30.8	0.0
2017 12/15 04:15	43.1	36.8	216.9	20.6	30.17	49.7	0.0	12.99	-40.0	0	15.0	41.6	41.5	0	1737	0	0	0	34.0	30.8	0.0
2017 12/15 04:30	42.1	39.4	206.9	20.4	30.17	49.7	0.0	13.00	-40.0	0	15.4	39.8	41.2	0	1737	0	0	0	34.0	30.8	0.0
2017 12/15 04:45	41.2	41.0	248.3	22.6	30.17	49.6	0.0	13.00	-40.0	0	15.2	39.8	40.0	0	1737	0	0	0	34.0	30.8	0.0
2017 12/15 05:00	41.2	42.3	232.6	21.9	30.16	49.5	0.0	13.00	-40.0	0	15.0	39.8	38.5	0	1737	0	0	0	34.0	30.8	0.0
2017 12/15 05:15	41.0	43.2	224.0	24.5	30.15	49.5	0.0	13.00	-39.8	0	15.1	38.9	40.2	0	1737	0	0	0	34.1	30.8	0.0
2017 12/15 05:30	40.5	44.1	223.8	21.6	30.15	49.3	0.0	12.99	-40.0	0	15.2	39.8	41.2	0	1737	0	0	0	34.1	30.8	0.0
2017 12/15 05:45	40.4	45.5	234.1	24.7	30.15	49.3	0.0	12.99	-39.9	0	15.3	38.9	42.1	0	1737	0	0	0	34.2	30.9	0.0
2017 12/15 06:00	39.8	46.8	221.4	23.8	30.14	49.1	0.0	13.00	-40.0	0	15.2	38.9	40.4	0	1737	0	0	0	34.3	30.9	0.0
2017 12/15 06:15	39.3	47.8	195.6	23.3	30.13	49.0	0.0	13.01	-40.0	0	15.1	38.9	40.8	0	1737	0	0	0	34.4	30.9	0.0
2017 12/15 06:30	39.1	48.4	240.5	27.4	30.13	48.9	0.0	12.99	-40.0	0	15.2	38.0	40.8	0	1737	0	0	0	34.5	30.9	0.0
2017 12/15 06:45	39.3	48.4	238.0	22.9	30.12	48.8	0.0	12.98	-39.9	0	15.4	38.9	40.5	0	1737	0	0	0	34.5	31.1	0.0
2017 12/15 07:00	39.0	48.9	225.6	24.7	30.12	48.7	0.7	13.02	-40.0	0	15.2	38.9	40.6	0	1737	0	0	0	34.8	31.2	0.0
2017 12/15 07:15	38.4	49.9	218.4	26.2	30.11	48.6	12.9	12.99	-40.1	0	15.1	38.0	40.0	0	1737	0	0	0	34.9	31.2	0.0
2017 12/15 07:30	38.7	49.3	251.0	25.3	30.10	48.5	118.4	12.99	-40.1	0	15.1	38.0	41.1	0	1737	0	0	0	35.0	31.2	0.0
2017 12/15 07:45	37.9	50.6	229.8	27.6	30.10	48.4	260.9	12.98	-40.0	0	15.2	37.1	41.3	0	1737	0	0	0	35.0	31.3	0.0
2017 12/15 08:00	38.5	49.2	253.2	27.8	30.09	48.2	429.9	12.99	-39.9	0	15.4	37.1	39.0	0	1737	0	0	0	35.1	31.4	0.0
2017 12/15 08:15	38.3	49.0	219.4	21.2	30.11	48.1	555.8	12.99	-39.9	0	15.2	38.9	39.5	0	1737	0	0	0	35.2	31.5	0.0
2017 12/15 08:30	38.2	50.5	238.3	23.2	30.11	48.0	604.3	12.99	-40.0	0	15.2	38.9	39.7	0	1737	0	0	0	35.3	31.6	0.0
2017 12/15 08:45	37.8	51.6	252.5	28.1	30.11	47.9	656.6	12.98	-40.0	0	15.2	38.0	41.3	0	1737	0	0	0	35.4	31.7	0.0
2017 12/15 09:00	37.2	54.1	248.6	25.9	30.10	47.8	695.6	12.98	-40.0	0	15.2	37.1	41.1	0	1737	0	0	0	35.7	32.0	0.0
2017 12/15 09:15	37.1	53.8	270.4	22.9	30.10	47.8	734.0	12.99	-40.1	0	15.3	37.1	40.6	0	1737	0	0	0	36.1	32.3	0.0
2017 12/15 09:30	35.6	60.0	241.4	25.4	30.09	47.8	736.0	12.98	-40.0	0	15.2	38.0	41.8	0	1737	0	0	0	36.3	32.4	0.0
2017 12/15 09:45	35.4	61.5	231.9	29.1	30.09	47.6	732.0	13.00	-40.0	0	15.0	37.1	42.1	0	1737	0	0	0	36.8	32.7	0.0
2017 12/15 10:00	35.0	63.1	248.4	23.6	30.09	47.6	739.0	13.00	-39.8	0	15.1	37.1	41.7	0	1737	0	0	0	37.2	33.0	0.0
2017 12/15 10:15	35.4	61.3	238.7	24.4	30.09	47.6	730.0	13.00	-40.0	0	15.2	37.1	42.0	0	1737	0	0	0	37.7	33.3	0.0
2017 12/15 10:30	33.5	70.9	266.5	17.9	30.10	47.5	744.0	12.98	-40.1	0	14.8	35.3	41.2	0	1737	0	0	0	37.8	33.5	0.0
2017 12/15 10:45	31.9	84.2	290.4	15.7	30.11	47.5	727.0	12.99	-40.0	0	15.0	32.6	39.4	0	1738	0	0	0	37.9	33.6	0.0
2017 12/15 11:00	30.0	94.3	284.7	20.1	30.11	47.6	777.0	12.99	-40.0	0	15.0	31.7	38.2	0	1738	0	0	0	37.8	33.9	0.0
2017 12/15 11:15	29.8	98.2	262.0	17.4	30.10	47.6	755.0	12.99	-39.9	0	15.0	31.7	38.1	0	1738	0	0	0	37.9	34.0	0.0
2017 12/15 11:30	30.0	99.8	278.8	18.1	30.10	47.6	799.0	13.01	-40.0	0	15.0	30.8	37.7	0	1738	0	0	0	37.9	34.1	0.0
2017 12/15 11:45	30.7	100.2	295.0	23.1	30.10	47.8	799.0	12.99	-40.0	0	15.1	30.8	37.3	0	1738	0	0	0	37.9	34.2	0.0
2017 12/15 12:00	30.9	100.3	243.9	18.6	30.09	47.9	811.0	13.00	-40.0	0	15.0	31.7	37.8	0	1738	0	0	0	37.9	34.2	0.0
2017 12/15 12:15	31.2	100.5	277.8	14.0	30.09	48.0	750.0	13.02	-40.0	0	15.2	31.7	37.3	0	1738	0	0	0	38.0	34.3	0.0
2017 12/15 12:30	30.9	100.5	280.7	15.1	30.08	48.1	798.0	13.00	-39.9	0	15.1	31.7	37.3	0	1739	0	0	0	38.0	34.4	0.0
2017 12/15 12:45	30.5	100.8	259.1	14.8	30.07	48.2	781.0	13.01	-40.0	0	15.2	30.8	37.1	0	1740	0	0	0	38.0	34.4	0.0
2017 12/15 13:00	30.5	100.8	268.2	23.1	30.07	48.2	773.0	12.98	-40.0	0	15.1	30.8	36.9	0	1741	0	0	0	38.0	34.4	0.0
2017 12/15 13:15	30.1	100.8	260.1	16.8	30.07	48.4	757.0	13.00	-39.9	0	15.2	29.9	36.8	0	1741	0	0	0	37.9	34.5	0.0
2017 12/15 13:30	29.5	100.8	241.3	24.2	30.06	48.4	771.0	12.99	-40.0	0	15.2	29.9	36.1	0	1742	0	0	0	37.8	34.5	0.0
2017 12/15 13:45	29.6	100.8	245.6	24.0	30.05	48.4	761.0	12.98	-40.0	0	15.1	29.9	35.3	0	1742	0	0	0	37.7	34.5	0.0
2017 12/15 14:00	29.9	100.7	242.1	28.1	30.04	48.4	738.0	13.01	-39.9	0	15.1	29.9	35.7	0	1744	0	0	0	37.8	34.5	0.0
2017 12/15 14:15	30.4	100.7	256.2	22.4	30.04	48.3	730.0	12.98	-39.9	0	15.1	30.8	36.0	0	1744	0	0	0	37.8	34.5	0.0
2017 12/15 14:30	30.5	100.8	250.9	25.6	30.03	48.2	774.0	12.99	-40.0	0	15.2	30.8	36.3	0	1744	0	0	0	37.8	34.5	0.0
2017 12/15 14:45	30.5	100.8	272.8	23.4	30.03	48.2	716.0	12.98	-39.9	0	15.1	30.8	36.1	0	1744	0	0	0	37.8	34.5	0.0
2017 12/15 15:00	30.6	100.8	268.2	26.4	30.03	48.0	719.0	13.00	-40.0	0	15.2	29.9	36.0	0	1744	0	0	0	37.8	34.5	0.0
2017 12/15 15:15	30.1	100.8	260.9	19.4	30.04	48.0	626.3	13.01	-40.0	0	15.1	29.9	35.4	0	1744	0	0	0	37.7	34.7	0.0
2017 12/15 15:30	29.8	100.9	73.6	17.8	30.05	48.0	537.8	13.02	-40.2	0	15.1	29.9	35.2	0	1744	0	0	0	37.8	34.7	0.0
2017 12/15 15:45	29.6	100.8	289.8	20.6	30.04	48.0	565.7	12.99	-39.9	0	15.1	27.2	33.0	0	0	0	0	0	52.5	34.3	0.0
2017 12/15 16:00	29.3	100.7	274.9	15.4	30.04	48.0	467.9	12.99	-39.9	0	15.1	27.2	33.0	0	0	0	0	0	52.5	34.3	0.0
2017 12/15 16:15	28.8	100.6	271.7	14.4	30.05	48.0	339.0	13.02	-40.0	0	15.1	27.2	33.0	0	0	0	0	0	52.5	34.3	0.0
2017 12/15 16:30	28.6	100.7	281.4	15.1	30.05	48.0	271.1	12.99	-40.0	0	15.1	27.2	33.0	0	0	0	0	0	52.5	34.3	0.0
2017 12/15 16:45	28.3	100.4	304.5	14.1	30.04	48.0	50.2	13.02	-40.0	0	15.1	27.2	33.0	0	0	0	0	0	52.5	34.3	0.0
2017 12/15 17:00	28.0	100.4	262.8	12.8	30.05	48.0	3.7	13.00	-39.9	0	15.1	27.2	33.0	0	0	0	0	0	52.5	34.3	0.0
2017 12/15 17:15	27.8	100.2	274.7	13.2	30.05	48.0	0.0	13.00	-39.9	0	15.1	27.2	33.0	0	0	0	0	0	52.5	34.3	0.0
2017 12/15 17:30	27.1	100.0	253.6	12.9	30.05	48.0	0.0	13.01	-40.0	0	15.1	27.2	33.0	0	0	0	0	0	52.5	34.3	0.0
2017 12/15 17:45	26.4	99.8	321.4	19.2	30.06	47.9	0.0	13.01	-40.0	0	15.0	27.2	32.8	0	0	0	0	0	53.9	34.3	0.0
2017 12/15 18:00	26.1	99.6	100.5	13.2	30.07	47.9	0.0	12.98	-40.0	0	15.1	26.3	32.4	0	0	0	0	0	55.1	34.2	0.0
2017 12/15 18:15	25.7	99.5	173.2	10.8	30.07	47.8	0.0	13.00	-40.0	0	15.3	25.4	32.2	0	0	0	0	0	55.9	34.1	0.0
2017 12/15 18:30	25.7	99.4	268.3	10.6	30.06	47.9	0.0	12.99	-39.9	0	15.3	25.4	32.3	0	0	0	0	0	56.4	34.1	0.0
2017 12/15 18:45	25.4	99.3	270.8	10.8	30.06	47.8	0.0	12.99	-40.0	0	15.2	25.4	32.3	0	0	0	0	0	57.2	34.1	0.0
2017 12/15 19:00	25.5	99.3	260.8	13.4	30.07	47.8	0.0	13.00	-40.0	0	15.2	25.4	31.6	0	0	0	0	0	59.0	34.1	0.0
2017 12/15 19:15	25.4	99.5	322.1	6.6	30.08	47.8	0.0	13.02	-40.0	0	15.2	25.4	31.6	0	0	0	0	0	60.1	34.0	0.0
2017 12/15 19:30	25.5	99.2	238.9	16.2	30.07	47.7	0.0	13.00	-39.9	0	15.2	25.4	31.4	0	0	0	0	0	61.1	34.0	0.0
2017 12/15 19:45	25.5	99.4	277.2	14.1	30.07	47.6	0.0	13.01	-40.0	0	15.3	25.4	31.3	0	0	0	0	0	62.2	34.0	0.0
2017 12/15 20:00	25.6	99.3	263.5	20.5	30.05	47.6	0.0	13.01	-39.9	0	15.5	25.4	31.4	0	0	0	0	0	63.2	34.0	0.0
2017 12/15 20:15	25.4	99.2	275.3	14.6	30.04	47.6	0.0	13.01	-39.9	0	15.4	25.4	31.1	0	0	0	0	0	63.9	34.0	0.0
2017 12/15 20:30	25.1	99.2	316.2	11.5	30.05	47.5	0.0	12.99	-40.0	0	15.5	25.4	30.9	0	0	0	0	0	64.7	34.0	0.0
2017 12/15 20:45	24.5	98.7	282.6	12.7	30.06	47.4	0.0	12.99	-40.0	0	15.6	24.5	30.5	0	0	0	0	0	65.1	34.0	0.0
2017 12/15 21:00	24.3	98.7	185.5	12.2	30.06	47.4	0.0	13.01	-40.0	0	15.6	24.5	30.2	0	0	0	0	0	65.3	34.0	0.0
2017 12/15 21:15	24.0	98.9	235.6	8.2	30.07	47.4	0.0	13.00	-40.0	0	15.6	24.5	30.3	0	0	0	0	0	65.0	34.0	0.0
2017 12/15 21:30	24.1	98.8	227.6	17.1	30.06	47.2	0.0	13.01	-40.0	0	15.6	24.5	30.3	0	0	0	0	0	65.1	34.0	0.0
2017 12/15 21:45	24.1	98.9	268.6	9.3	30.06	47.2	0.0	13.02	-40.0	0	15.6	24.5	30.2	0	0	0	0	0	65.5	33.9	0.0
2017 12/15 22:00	24.1	98.9	287.1	12.8	30.06	47.0	0.0	12.98	-40.0	0	15.7	24.5	30.0	0	0	0	0	0	65.5	33.9	0.0
2017 12/15 22:15	24.0	98.7	188.5	15.1	30.06	47.0	0.0	13.00	-39.9	0	15.7	24.5	29.7	0	0	0	0	0	65.1	33.9	0.0
2017 12/15 22:30	24.1	98.8	290.9	17.1	30.07	47.0	0.0	13.00	-40.0	0	15.7	24.5	29.7	0	0	0	0	0	65.1	33.9	0.0
2017 12/15 22:45	24.0	98.8	2.6	14.1	30.07	47.0	0.0	13.01	-40.0	0	16.0	24.5	29.6	0	0	0	0	0	65.6	34.0	0.0
2017 12/15 23:00	23.9	98.5	245.0	15.7	30.07	46.8	0.0	13.01	-40.0	0	16.3	23.6	29.4	0	0	0	0	0	65.7	33.9	0.0
2017 12/15 23:15	23.8	98.5	274.4	14.6	30.07	46.7	0.0	13.01	-40.0	0	16.3	23.6	29.3	0	0	0	0	0	65.7	33.9	0.0
2017 12/15 23:30	23.4	98.5	267.7	14.1	30.07	46.7	0.0	12.99	-40.0	0	16.2	23.6	29.1	0	0	0	0	0	65.3	33.9	0.0
2017 12/15 23:45	23.0	98.3	280.3	13.7	30.07	46.6	0.0	13.02	-40.0	0	16.2	23.6	28.8	0	0	0	0	0	64.8	33.9	0.0
2017 12/16 00:00	23.3	98.2	299.3	15.9	30.08	46.5	0.0	13.01	-40.0	0	16.2	23.6	28.7	0	0	0	0	0	64.4	33.9	0.0
2017 12/16 00:15	22.9	98.3	270.2	15.1	30.08	46.5	0.0	13.01	-40.0	0	16.4	22.7	28.7	0	0	0	0	0	64.4	33.9	0.0
2017 12/16 00:30	22.9	98.3	297.5	12.2	30.08	46.4	0.0	13.00	-40.0	0	16.4	22.7	28.7	0	0	0	0	0	65.0	33.9	0.0
2017 12/16 00:45	22.8	98.2	297.7	17.3	30.08	46.4	0.0	12.99	-40.0	0	16.4	22.7	28.6	0	0	0	0	0	65.6	33.9	0.0
2017 12/16 01:00	22.8	98.3	255.1	10.9	30.08	46.3	0.0	13.02	-40.0	0	16.5	22.7	28.7	0	0	0	0	0	66.3	33.9	0.0
2017 12/16 01:15	22.8	98.2	201.6	15.8	30.08	46.3	0.0	12.99	-39.9	0	16.4	22.7	28.6	0	0	0	0	0	66.9	33.7	0.0
2017 12/16 01:30	22.9	98.2	260.5	8.1	30.08	46.3	0.0	13.00	-39.9	0	16.5	22.7	28.4	0	0	0	0	0	67.8	33.7	0.0
2017 12/16 01:45	22.8	98.4	281.9	9.5	30.09	46.2	0.0	13.00	-40.0	0	16.5	22.7	28.6	0	0	0	0	0	68.7	33.7	0.0
2017 12/16 02:00	22.9	98.3	259.0	9.3	30.09	46.1	0.0	12.99	-40.0	0	16.5	22.7	28.6	0	0	0	0	0	69.4	33.7	0.0
2017 12/16 02:15	22.5	98.0	285.0	14.8	30.09	46.1	0.0	13.02	-40.0	0	16.3	22.7	28.1	0	0	0	0	0	69.8	33.7	0.0
2017 12/16 02:30	22.4	98.1	288.3	11.1	30.09	46.0	0.0	12.98	-40.0	0	16.3	22.7	27.9	0	0	0	0	0	70.2	33.6	0.0
2017 12/16 02:45	22.1	97.7	275.9	9.7	30.09	45.9	0.0	12.98	-40.0	0	16.5	21.8	27.7	0	0	0	0	0	70.2	33.6	0.0
2017 12/16 03:00	21.9	97.9	274.4	11.9	30.09	45.9	0.0	12.99	-40.0	0	16.5	21.8	27.6	0	0	0	0	0	69.8	33.6	0.0
2017 12/16 03:15	21.8	97.8	295.4	10.8	30.08	45.8	0.0	13.00	-40.0	0	16.5	21.8	27.8	0	0	0	0	0	69.1	33.6	0.0
2017 12/16 03:30	21.7	97.8	354.9	12.7	30.08	45.7	0.0	13.00	-40.0	0	16.5	21.8	27.6	0	0	0	0	0	68.5	33.6	0.0
2017 12/16 03:45	21.2	97.5	187.9	10.9	30.08	45.7	0.0	13.00	-40.0	0	16.4	21.8	27.2	0	0	0	0	0	68.3	33.6	0.0
2017 12/16 04:00	21.1	97.5	287.2	14.7	30.08	45.6	0.0	13.00	-40.0	0	16.5	20.9	27.0	0	0	0	0	0	67.8	33.6	0.0
2017 12/16 04:15	21.1	97.5	263.4	15.8	30.07	45.5	0.0	12.98	-40.0	0	16.5	20.9	27.0	0	0	0	0	0	67.4	33.6	0.0
2017 12/16 04:30	21.3	97.6	296.1	8.7	30.07	45.5	0.0	13.02	-40.0	0	16.5	20.9	27.2	0	0	0	0	0	66.9	33.6	0.0
2017 12/16 04:45	21.1	97.6	184.2	8.3	30.07	45.4	0.0	13.02	-40.0	0	16.5	20.9	27.5	0	0	0	0	0	66.1	33.5	0.0
2017 12/16 05:00	20.8	97.6	171.9	11.5	30.07	45.2	0.0	13.01	-40.0	0	16.5	20.9	27.0	0	0	0	0	0	65.5	33.5	0.0
2017 12/16 05:15	21.0	97.3	251.5	10.6	30.07	45.2	0.0	13.00	-40.0	0	16.5	20.9	26.8	0	0	0	0	0	65.0	33.4	0.0
2017 12/16 05:30	20.7	97.3	286.2	11.2	30.07	45.1	0.0	13.00	-40.0	0	16.5	20.9	27.3	0	0	0	0	0	64.6	33.5	0.0
2017 12/16 05:45	20.7	97.3	158.1	9.5	30.07	45.1	0.0	13.02	-40.0	0	16.5	20.9	27.1	0	0	0	0	0	64.2	33.4	0.0
2017 12/16 06:00	20.6	97.2	261.7	10.9	30.07	45.0	0.0	13.00	-40.0	0	16.4	20.9	27.0	0	0	0	0	0	64.4	33.4	0.0
2017 12/16 06:15	20.4	97.3	261.2	12.6	30.07	45.0	0.0	12.98	-40.0	0	16.4	20.9	26.6	0	0	0	0	0	65.8	33.3	0.0
2017 12/16 06:30	20.4	97.3	292.9	12.1	30.07	44.9	0.0	13.01	-40.0	0	16.4	20.9	26.4	0	0	0	0	0	66.3	33.3	0.0
2017 12/16 06:45	20.4	97.2	294.2	11.2	30.07	44.9	0.0	13.02	-40.0	0	16.4	20.9	27.1	0	0	0	0	0	67.6	33.2	0.0
2017 12/16 07:00	20.4	97.3	277.3	9.7	30.08	44.8	1.4	13.00	-39.9	0	16.4	20.9	26.9	0	0	0	0	0	68.6	33.2	0.0
2017 12/16 07:15	20.4	97.3	288.5	9.7	30.07	44.8	21.0	13.00	-40.1	0	16.4	20.9	26.9	0	0	0	0	0	69.2	33.2	0.0
2017 12/16 07:30	20.4	97.3	275.5	5.5	30.06	44.7	173.4	13.00	-40.0	0	16.4	20.9	26.8	0	0	0	0	0	69.6	33.2	0.0
2017 12/16 07:45	20.5	97.4	276.2	6.5	30.07	44.7	373.6	13.00	-39.9	0	16.4	20.9	27.0	0	0	0	0	0	69.9	33.1	0.0
2017 12/16 08:00	20.6	97.3	268.7	8.1	30.07	44.6	452.3	13.00	-40.0	0	16.4	20.9	27.5	0	0	0	0	0	70.1	33.1	0.0
2017 12/16 08:15	20.7	97.4	267.1	8.0	30.08	44.6	587.7	12.98	-40.0	0	16.4	20.9	27.7	0	0	0	0	0	69.4	33.1	0.0
2017 12/16 08:30	20.7	97.5	270.3	10.4	30.08	44.5	667.2	12.99	-39.9	0	16.5	20.9	27.8	0	0	0	0	0	68.9	33.1	0.0
2017 12/16 08:45	21.2	97.6	274.2	10.2	30.08	44.5	766.0	12.98	-40.0	0	16.5	20.9	27.9	0	0	0	0	0	68.2	33.1	0.0
2017 12/16 09:00	21.3	97.7	289.0	9.4	30.09	44.4	804.0	13.01	-40.0	0	16.4	21.8	28.6	0	0	0	0	0	67.6	33.1	0.0
2017 12/16 09:15	21.4	97.8	278.4	7.4	30.10	44.4	800.0	13.01	-39.9	0	16.4	21.8	28.7	0	0	0	0	0	68.0	33.1	0.0
2017 12/16 09:30	21.9	97.9	274.7	11.9	30.11	44.3	828.0	13.00	-40.0	0	16.5	21.8	28.9	0	0	0	0	0	68.2	33.1	0.0
2017 12/16 09:45	22.2	98.1	272.2	9.2	30.11	44.3	873.0	13.01	-39.9	0	16.3	22.7	29.9	0	0	0	0	0	68.5	33.1	0.0
2017 12/16 10:00	22.8	98.2	286.4	5.9	30.11	44.3	863.0	13.00	-40.0	0	16.4	22.7	29.7	0	0	0	0	0	69.0	33.2	0.0
2017 12/16 10:15	23.5	98.6	278.2	7.4	30.11	44.3	879.0	13.02	-40.0	0	16.5	22.7	30.8	0	0	0	0	0	69.1	33.3	0.0
2017 12/16 10:30	23.3	98.2	249.4	8.1	30.11	44.3	865.0	13.00	-40.0	0	16.5	22.7	31.2	0	0	0	0	0	69.3	33.3	0.0
2017 12/16 10:45	23.0	98.1	277.1	10.8	30.11	44.3	876.0	13.01	-39.9	0	16.5	23.6	31.7	0	0	0	0	0	68.9	33.4	0.0
2017 12/16 11:00	22.9	98.4	294.6	12.1	30.12	44.2	892.0	13.02	-40.0	0	16.5	23.6	32.5	0	0	0	0	0	68.4	33.6	0.0

Where:
  YYYY   = Year
  MM/DD  = Month / Date
  hh:mm  = Hour  : Minute
  Temp   = Temperature outside       (F)              @ 5720', on tower
  Humid  = Humidity    outside       (%)              @ 5720'
  W_dir  = Wind direction / Azimuth  (degrees)        @ 5720'
  W_spd  = Wind speed                (miles per hour) @ 5720'
  Barom  = Sea-level air pressure    (inches of mercury)
  T_int  = Temperature (internal)    (F)              - inside barometer case
  Light  = Outside light level       (no units)       - 0 = dark, 1000 = bright
  Power  = Power supply rail         (Volts)
  Temp2  = Temperature (back-up)     (F)
  P2     = datalogger counter channel "P2" (to be static burst counter)
  Snow   = Snow depth,  mid-mountain (inches)         @ 5010'
  T_mid  = Temperature, mid-mountain (F)              @ 5010'
  T_base = Temperature @ south lodge (F)              @ 4700'
  Precip = Precipitation total       (inches)         @ 4800' (near US20 mp81)

Notes:
1999 07/17
   Barometric data in this listing should have an additional
   temperature correction applied to it, based on the sensor's
   internal temperature:

   P_corrected = Barom + (-0.0223 * T_int) + 0.8887  (inches Hg)

2004 07/03
   The air pressure correction equation has not been checked
   in a long time.  The air pressure reading is best used only
   to observe general trends.

2006 11/18
   Added precipitation gauge.  Depth is precipitation equivalent in water,
   for the water year (beginning October 1st) at the Hogg Pass
   SnoTel station.

2011 03/11
  Fixed data column title bug from adding "T_base" after "T_mid".
  If you notice a bug like this it will get fixed a whole lot sooner
  if you tell me about it.